SondeTracker

Meteorological Radiosondes Database

Operations
Radiosondes Table of last 48 hours (512)
Number Type Last Frame [UTC] φ λ Course Speed Altitude Climbing Launch Site Frequency Nearest City Distance from QTH Status
T3040235 RS41 2022-05-23 14:03:39 46.1408 9.66458 34 ° 17 km/h 2744 m -1.7 m/s Cameri (IT) 402.00 MHz 0.00 km UNKNOWN
D20062624 DFM17 2022-05-23 13:58:00 41.8639 -99.23 9 ° 46 km/h 1470 m -3.2 m/s North Platte [NE] (US) 403.010 MHz 0.00 km UNKNOWN
T4250214 RS41 2022-05-23 13:57:14 50.7414 -5.04404 104 ° 28 km/h 1147 m -8.2 m/s Camborne (GB) 403.30 MHz Wadebridge (GB) 0.00 km LOST
T3150171 RS41 2022-05-23 13:56:30 37.9377 12.5857 101 ° 15 km/h 151 m -2.7 m/s Trapani-Birgi (IT) 404.500 MHz Paceco (IT) 0.00 km UNKNOWN
ME01231E8 M10 2022-05-23 13:56:06 42.1351 9.23238 39 ° 46 km/h 6700 m -4.9 m/s Ajaccio (FR) MHz 0.00 km UNKNOWN
ME162333E M10 2022-05-23 13:56:05 49.1303 2.60642 93 ° 31 km/h 347 m -5.8 m/s Trappes (FR) 401.000 MHz Othis (FR) 0.00 km UNKNOWN
ME9500207 M20 2022-05-23 13:55:22 47.8573 17.1121 326 ° 20 km/h 169 m -4.9 m/s Vienna (AT) 403.501 MHz Hegyeshalom (HU) 0.00 km UNKNOWN
T5210155 RS41 2022-05-23 13:55:00 43.5017 -76.4158 74 ° 89 km/h 4132 m -3.6 m/s Buffalo [NY] (US) 403.801 MHz 0.00 km UNKNOWN
T3440002 RS41 2022-05-23 13:53:45 54.2855 7.85864 338 ° 44 km/h 1049 m -2.5 m/s Norderney (DE) 405.30 MHz Cuxhaven (DE) 0.00 km LOST
T3410580 RS41 2022-05-23 13:53:06 52.0152 14.8625 326 ° 26 km/h 696 m -5.2 m/s Lindenberg (DE) 405.10 MHz Gubin (PL) 0.00 km UNKNOWN
T3451090 RS41 2022-05-23 13:53:00 51.4233 4.63706 154 ° 9 km/h 112 m -4.1 m/s Uccle (BE) 403.50 MHz Zundert (NL) 0.00 km UNKNOWN
T3230868 RS41 2022-05-23 13:50:53 -28.035 -47.3182 162 ° 26 km/h 182 m -2.9 m/s Florianopolis (BR) 405.300 MHz 0.00 km LOST
T1920391 RS41 2022-05-23 13:47:54 50.761 11.3182 333 ° 19 km/h 657 m -4.2 m/s Meiningen (DE) 402.30 MHz Rudolstadt (DE) 0.00 km UNKNOWN
D21041771 DFM17 2022-05-23 13:47:30 34.5773 -110.902 132 ° 109 km/h 10695 m -4.7 m/s Flagstaff [AZ] (US) 404.810 MHz 0.00 km UNKNOWN
S2313086 RS92 2022-05-23 13:45:42 30.6136 -81.5141 39 ° 43 km/h 5709 m -2.8 m/s Jacksonville [FL] (US) 1676.000 MHz 0.00 km UNKNOWN
D21046006 DFM17 2022-05-23 13:45:18 40.7593 -88.0356 191 ° 24 km/h 1259 m -4.2 m/s Lincoln [IL] (US) 403.610 MHz 0.00 km UNKNOWN
D21046457 DFM17 2022-05-23 13:43:00 37.4995 -79.6551 214 ° 9 km/h 859 m -11.8 m/s Blacksburg [VA] (US) 404.010 MHz Hollins [VA] (US) 0.00 km UNKNOWN
T3040666 RS41-SG 2022-05-23 13:40:33 39.9173 18.6151 11 ° 22 km/h 598 m -11.0 m/s Galatina (IT) 403.50 MHz Tricase (IT) 0.00 km LOST
D20013028 DFM09P 2022-05-23 13:39:00 44.7621 -62.606 54 ° 35 km/h 925 m -9.3 m/s Shearwater [NS] (CA) 402.520 MHz 0.00 km UNKNOWN
SC500EC8 SRSC50 2022-05-23 13:38:42 47.4597 9.35251 15 ° 48 km/h 3567 m -2.5 m/s Meiringen (CH) 404.101 MHz 0.00 km UNKNOWN
LMS6CF2CB LMS6 2022-05-23 13:36:32 39.5859 -94.4813 305 ° 19 km/h 483 m -6.2 m/s Topeka [KS] (US) 400.261 MHz Smithville [MO] (US) 0.00 km UNKNOWN
T3210055 RS41 2022-05-23 13:36:13 41.667 12.7952 23 ° 7 km/h 447 m -5.5 m/s Pratica di Mare (IT) 402.700 MHz 0.00 km UNKNOWN
S4220218 RS41 2022-05-23 13:35:19 43.7396 -6.67768 104 ° 41 km/h 209 m -8.3 m/s A Coruña (ES) 404.001 MHz Navia (ES) 0.00 km LOST
D20041245 DFM17 2022-05-23 13:34:30 38.5733 -118.517 130 ° 163 km/h 11929 m -3.9 m/s 404.810 MHz 0.00 km UNKNOWN
S3230371 RS41-SG 2022-05-23 13:33:31 47.49 7.49373 115 ° 19 km/h 553 m -4.1 m/s Payerne (CH) 404.00 MHz Ettingen (CH) 0.00 km UNKNOWN
T3241160 RS41-SGP 2022-05-23 13:33:00 -25.5054 -53.767 134 ° 19 km/h 1376 m -2.8 m/s Foz Do Iguacu (BR) 403.013 MHz Cascavel (BR) 0.00 km UNKNOWN
T1120782 RS41 2022-05-23 13:32:42 49.0313 17.6577 250 ° 2 km/h 348 m -11.0 m/s Prostějov (CZ) 402.10 MHz Uherský Brod (CZ) 0.00 km UNKNOWN
T3050275 RS41-SG 2022-05-23 13:32:39 39.4586 9.23315 43 ° 24 km/h 731 m -9.5 m/s Decimomannu (IT) 403.50 MHz Dolianova (IT) 0.00 km UNKNOWN
ME9A01535 M20 2022-05-23 13:32:07 50.7313 17.4241 311 ° 24 km/h 308 m -11.0 m/s Wrocław (PL) 403.000 MHz Grodków (PL) 0.00 km UNKNOWN
IMS7A19C3 MEISEI 2022-05-23 13:31:44 40.503 30.1175 125 ° 26 km/h 1685 m -9999.0 m/s Istanbul (TR) MHz Pamukova (TR) 0.00 km UNKNOWN
T5140113 RS41 2022-05-23 13:31:01 43.0766 -115.513 279 ° 28 km/h 1380 m -10.7 m/s Boise [ID] (US) 404.800 MHz 0.00 km UNKNOWN
T1050947 RS41 2022-05-23 13:30:53 40.5595 -2.64081 69 ° 11 km/h 1579 m -8.8 m/s Madrid (ES) 403.000 MHz Guadalajara (ES) 0.00 km UNKNOWN
D20041056 DFM17 2022-05-23 13:29:22 42.6225 -108.023 183 ° 33 km/h 2397 m -10.5 m/s Riverton [WY] (US) 403.010 MHz 0.00 km UNKNOWN
T0840802 RS41-SG 2022-05-23 13:28:59 60.5437 23.5417 43 ° 17 km/h 421 m -17.1 m/s Jokioinen (FI) 403.000 MHz Somero (FI) 0.00 km UNKNOWN
LMS6CF775 LMS6 2022-05-23 13:28:00 42.1213 -89.2522 294 ° 4 km/h 1180 m -6.6 m/s Davenport [IA] (US) 401.010 MHz 0.00 km UNKNOWN
ME9A01949 M20 2022-05-23 13:28:00 54.2949 18.045 303 ° 6 km/h 696 m -9.6 m/s Łeba (PL) 403.603 MHz Kartuzy (PL) 0.00 km LOST
T2240841 RS41 2022-05-23 13:27:09 -37.3635 145.635 295 ° 9 km/h 807 m -5.5 m/s Melbourne (AU) 401.500 MHz 0.00 km UNKNOWN
ME0A225C0 M10 2022-05-23 13:27:00 49.0254 -3.94347 74 ° 26 km/h 1807 m -12.0 m/s Guipavas (FR) 403.999 MHz Saint-Pol-de-Léon (FR) 0.00 km LOST
T4420125 RS41 2022-05-23 13:25:45 -34.6592 139.502 221 ° 35 km/h 778 m -6.7 m/s Adelaide (AU) 401.501 MHz 0.00 km UNKNOWN
T3010047 RS41 2022-05-23 13:25:42 50.1909 7.90126 350 ° 22 km/h 553 m -13.1 m/s Idar-Oberstein (DE) 402.700 MHz Taunusstein (DE) 0.00 km UNKNOWN
ME1622E9B M10 2022-05-23 13:24:30 37.899 -0.65922 15 ° 35 km/h 161 m -5.2 m/s Murcia (ES) 403.399 MHz Torrevieja (ES) 0.00 km LOST
T3240586 RS41 2022-05-23 13:24:00 -29.8941 -50.5475 168 ° 9 km/h 829 m -11.3 m/s Porto Alegre (BR) 403.001 MHz 0.00 km UNKNOWN
ME9202970 M20 2022-05-23 13:23:30 44.183 5.08352 322 ° 41 km/h 1922 m -7.0 m/s Nîmes (FR) 402.401 MHz Vaison-la-Romaine (FR) 0.00 km UNKNOWN
S3740625 RS41 2022-05-23 13:22:26 48.4611 20.7588 324 ° 6 km/h 1550 m -15.2 m/s Poprad (SK) 400.600 MHz Szendrő (HU) 0.00 km UNKNOWN
T4330691 RS41-SG 2022-05-23 13:22:18 51.6865 -9.78459 121 ° 41 km/h 685 m -16.0 m/s Cahersiveen (IE) 405.30 MHz Bantry (IE) 0.00 km UNKNOWN
T1110453 RS41 2022-05-23 13:22:10 28.2484 -16.054 107 ° 35 km/h 9224 m -12.8 m/s Guimar (ES) 402.000 MHz 0.00 km UNKNOWN
T5130536 RS41 2022-05-23 13:20:54 39.0437 -76.8938 67 ° 91 km/h 14610 m -10.4 m/s Washington [VA] (US) 403.000 MHz 0.00 km UNKNOWN
T2840174 RS41 2022-05-23 13:20:46 43.9698 15.6902 24 ° 24 km/h 529 m -12.5 m/s Zadar (HR) 403.00 MHz Stankovci (HR) 0.00 km UNKNOWN
T3730622 RS41 2022-05-23 13:20:32 45.5621 16.4796 273 ° 6 km/h 188 m -9.6 m/s Zagreb (HR) 402.00 MHz Martinska Ves (HR) 0.00 km UNKNOWN
T4210608 RS41-SG 2022-05-23 13:19:43 43.7112 26.9453 211 ° 11 km/h 724 m -15.8 m/s Bucarest (RO) 403.921 MHz Kitanchevo (BG) 0.00 km UNKNOWN
T0440784 RS41 2022-05-23 13:19:30 38.9025 -105.994 86 ° 96 km/h 7880 m -13.9 m/s Crested Butte [CO] (US) 403.000 MHz 0.00 km UNKNOWN
T3310082 RS41 2022-05-23 13:19:00 -29.5874 -52.9115 10 ° 37 km/h 8653 m -7.6 m/s Santa Maria (BR) 403.001 MHz 0.00 km UNKNOWN
MRZCE2EFF MP3H 2022-05-23 13:18:36 56.0602 44.4791 114 ° 39 km/h 1250 m -13.9 m/s Niznij Novgorod (RU) 403.000 MHz 0.00 km UNKNOWN
U0650839 RS41 2022-05-23 13:18:06 67.3353 26.624 96 ° 9 km/h 11822 m -25.4 m/s Sodankyla (FI) 404.000 MHz 0.00 km UNKNOWN
T4751169 RS41 2022-05-23 13:18:00 44.2018 -121.793 122 ° 94 km/h 6728 m -16.5 m/s Salem [OR] (US) 401.40 MHz 0.00 km UNKNOWN
D21013435 DFM17 2022-05-23 13:17:24 32.7041 -93.3195 52 ° 102 km/h 11941 m -4.1 m/s Shreveport [LA] (US) 403.011 MHz 0.00 km UNKNOWN
T4230685 RS41 2022-05-23 13:17:00 -23.7542 -49.8529 213 ° 24 km/h 1015 m -8.1 m/s Londrina (BR) 403.001 MHz Ourinhos (BR) 0.00 km UNKNOWN
ME0C2217B M10 2022-05-23 13:15:53 42.7665 22.5061 114 ° 19 km/h 1978 m -13.8 m/s Niš (RS) 402.400 MHz Tran (BG) 0.00 km UNKNOWN
T4220404 RS41-SGP 2022-05-23 13:15:30 -20.4716 -39.4607 77 ° 39 km/h 19333 m -16.6 m/s 405.325 MHz 0.00 km UNKNOWN
D21009614 DFM17 2022-05-23 13:15:11 45.1786 -92.2007 69 ° 63 km/h 2630 m -10.9 m/s Chanhassen [MN] (US) 403.611 MHz 0.00 km UNKNOWN
T5110358 RS41 2022-05-23 13:14:59 46.9361 19.6608 41 ° 6 km/h 391 m -15.4 m/s Budapest (HU) 403.200 MHz Kecskemét (HU) 0.00 km UNKNOWN
D20073231 DFM 2022-05-23 13:14:23 2.67175 101.3 254 ° 4 km/h 269 m -13.6 m/s Kuala Lumpur (MY) 401.110 MHz 0.00 km LOST
T4140503 RS41 2022-05-23 13:12:52 -33.6378 -70.0635 113 ° 89 km/h 5418 m -16.2 m/s Santo Domingo (CL) 403.001 MHz 0.00 km UNKNOWN
T0241102 RS41 2022-05-23 13:12:28 -23.8417 -45.5098 222 ° 19 km/h 1126 m -10.4 m/s São Paulo (BR) 405.300 MHz Caraguatatuba (BR) 0.00 km LOST
T4410181 RS41-SGP 2022-05-23 13:11:52 32.236 -116.723 315 ° 2 km/h 702 m -13.8 m/s San Diego [CA] (US) 400.650 MHz 0.00 km UNKNOWN
T1920614 RS41 2022-05-23 13:11:46 48.3194 12.1505 281 ° 19 km/h 857 m -8.9 m/s München (DE) 402.30 MHz Erding (DE) 0.00 km UNKNOWN
T0640004 RS41-SGP 2022-05-23 13:11:07 29.7705 -94.7435 234 ° 22 km/h 2403 m -15.6 m/s Houston [TX] (US) 404.501 MHz 0.00 km UNKNOWN
T4950548 RS41 2022-05-23 13:09:58 51.8893 21.3248 219 ° 2 km/h 1701 m -13.9 m/s Legionowo (PL) 404.50 MHz Góra Kalwaria (PL) 0.00 km UNKNOWN
T2930459 RS41 2022-05-23 13:09:25 49.8792 14.918 322 ° 20 km/h 1640 m -13.4 m/s Praha (CZ) 404.20 MHz Vlašim (CZ) 0.00 km UNKNOWN
T4320294 RS41 2022-05-23 13:08:48 47.5846 -123.412 100 ° 43 km/h 3882 m -10.6 m/s Quillayute [WA] (US) 404.600 MHz Shelton [WA] (US) 0.00 km UNKNOWN
U0740634 RS41-SG 2022-05-23 13:08:38 -31.9135 118.015 86 ° 170 km/h 11526 m -5.0 m/s Perth (AU) 401.500 MHz Merredin (AU) 0.00 km UNKNOWN
T2040866 RS41 2022-05-23 13:07:24 45.1182 8.32886 356 ° 11 km/h 409 m -3.9 m/s Cuneo-Levaldigi (IT) 402.80 MHz Casale Monferrato (IT) 0.00 km UNKNOWN
D20071917 DFM17 2022-05-23 13:07:19 5.22503 99.7933 267 ° 22 km/h 1113 m -16.3 m/s Bayan Lepas (MY) 400.171 MHz 0.00 km LOST
T2140669 RS41 2022-05-23 13:06:51 38.8344 -8.342 138 ° 19 km/h 304 m -15.7 m/s Lisbon (PT) 403.020 MHz Vendas Novas (PT) 0.00 km UNKNOWN
T4930540 RS41 2022-05-23 13:06:30 45.7469 20.5213 175 ° 13 km/h 665 m -13.3 m/s Szeged (HU) 402.30 MHz Kikinda (RS) 0.00 km UNKNOWN
T4430455 RS41 2022-05-23 13:05:40 60.9503 -150.226 107 ° 13 km/h 19230 m -19.0 m/s Anchorage [AK] (US) 405.300 MHz Anchorage [AK] (US) 0.00 km LOST
D21009597 DFM17 2022-05-23 13:05:08 40.2973 -111.253 114 ° 76 km/h 9875 m -13.4 m/s Salt Lake City [UT] (US) 405.010 MHz Heber [UT] (US) 0.00 km UNKNOWN
D21038168 DFM17 2022-05-23 13:04:00 36.225 -79.4877 62 ° 76 km/h 10452 m -15.6 m/s Greensboro [NC] (US) 403.400 MHz Elon [NC] (US) 0.00 km UNKNOWN
D21013007 DFM17 2022-05-23 13:03:30 35.4192 -114.512 127 ° 80 km/h 16582 m -13.8 m/s 403.411 MHz Bullhead City [AZ] (US) 0.00 km UNKNOWN
ME2122F68 M10 2022-05-23 13:03:30 41.4651 2.87331 62 ° 33 km/h 2274 m -10.8 m/s Barcelona (ES) 404.001 MHz Malgrat de Mar (ES) 0.00 km LOST
D21039950 DFM17 2022-05-23 13:02:00 37.6148 -92.5878 62 ° 83 km/h 8854 m -12.4 m/s Springfield [MO] (US) 403.011 MHz Lebanon [MO] (US) 0.00 km UNKNOWN
T1311060 RS41 2022-05-23 13:00:04 52.9643 10.5369 309 ° 33 km/h 411 m -5.3 m/s Bergen (DE) 405.70 MHz Uelzen (DE) 0.00 km UNKNOWN
T1831269 RS41 2022-05-23 12:59:00 59.3107 6.41495 40 ° 74 km/h 4843 m -19.0 m/s Stavanger (NO) 403.000 MHz Hjelmeland (NO) 0.00 km UNKNOWN
U1620063 RS41 2022-05-23 12:58:53 49.0977 9.7248 327 ° 20 km/h 494 m -10.9 m/s Stuttgart (DE) 404.50 MHz Schwäbisch Hall (DE) 0.00 km UNKNOWN
LMS6C6D60 LMS6 2022-05-23 12:58:34 34.2667 -120.258 258 ° 65 km/h 32300 m -62.1 m/s Santa Maria [CA] (US) 400.262 MHz Solvang [CA] (US) 0.00 km LOST
T4940050 RS41 2022-05-23 12:57:28 42.1777 23.964 138 ° 78 km/h 4456 m -19.6 m/s Sofia (BG) 405.300 MHz Sestrimo (BG) 0.00 km UNKNOWN
ME0B22862 M10 2022-05-23 12:56:55 44.084 21.2474 149 ° 15 km/h 646 m -5.7 m/s Belgrade (RS) 402.801 MHz Jagodina (RS) 0.00 km UNKNOWN
T5210907 RS41 2022-05-23 12:51:06 44.6956 12.1167 295 ° 22 km/h 90 m -17.1 m/s San Pietro Capofiume (IT) 404.60 MHz Comacchio (IT) 0.00 km UNKNOWN
T3320674 RS41-SGP 2022-05-23 12:50:30 -29.5536 -56.5186 112 ° 9 km/h 1201 m -5.6 m/s Uruguaiana (BR) 403.721 MHz La Cruz (AR) 0.00 km UNKNOWN
SC500E68 SRSC50 2022-05-23 12:49:48 47.709 9.40454 213 ° 11 km/h 19148 m -9.9 m/s Frauenfeld (CH) 403.900 MHz Friedrichshafen (DE) 0.00 km UNKNOWN
D22000587 DFM17 2022-05-23 12:46:07 3.72288 102.982 132 ° 11 km/h 2665 m -16.8 m/s Kuantan (MY) 402.010 MHz 0.00 km UNKNOWN
T4820429 RS41-SGP 2022-05-23 12:44:28 37.1346 -121.567 142 ° 65 km/h 3988 m -20.1 m/s Oakland [CA] (US) 404.000 MHz Morgan Hill [CA] (US) 0.00 km UNKNOWN
T1910690 RS41 2022-05-23 12:37:56 57.0229 3.9532 107 ° 9 km/h 17061 m -52.8 m/s Ekofisk (NO) 403.00 MHz 0.00 km LOST
LMS6CF408 LMS6 2022-05-23 12:34:28 39.8749 -104.026 243 ° 37 km/h 30459 m -19.4 m/s Denver [CO] (US) 400.261 MHz Fort Morgan [CO] (US) 0.00 km UNKNOWN
IMS10C9E0 MEISEI 2022-05-23 12:29:09 1.25937 103.607 311 ° 24 km/h 303 m -9999.0 m/s Singapore (SG) 401.899 MHz 0.00 km LOST
T3810634 RS41 2022-05-23 12:28:16 37.5807 24.307 319 ° 17 km/h 468 m -12.3 m/s Athens (GR) 402.001 MHz Ioulída (GR) 0.00 km UNKNOWN
IMS0C9E0 IMS100 2022-05-23 12:11:32 1.25824 103.594 63 ° 19 km/h 4812 m -4.9 m/s Singapore (SG) 401.89 MHz 0.00 km LOST
T4020451 RS41-SG 2022-05-23 12:06:12 -40.9786 176.23 36 ° 59 km/h 3211 m -14.1 m/s Paraparaumu (NZ) 400.501 MHz Masterton (NZ) 0.00 km LOST
T1630431 RS41 2022-05-23 12:01:00 35.1428 34.2638 89 ° 24 km/h 19282 m 7.6 m/s Nicosia (CY) 403.001 MHz Paralímni (CY) 0.00 km LOST
T1251076 RS41 2022-05-23 11:54:08 47.9323 11.6726 266 ° 20 km/h 747 m -4.3 m/s Altenstadt (DE) 402.50 MHz Unterhaching (DE) 0.00 km UNKNOWN
T1330087 RS41 2022-05-23 11:40:36 52.9796 7.75287 307 ° 28 km/h 231 m -12.3 m/s Meppen (DE) 404.500 MHz Friesoythe (DE) 0.00 km FOUND
T4250252 RS41 2022-05-23 11:09:55 52.0726 -1.02822 94 ° 15 km/h 651 m -4.0 m/s Larkhill (GB) 404.400 MHz Towcester (GB) 0.00 km UNKNOWN
S4940787 RS41-SG 2022-05-23 10:52:56 60.0251 24.8813 77 ° 19 km/h 372 m -16.2 m/s Vaisala Oyj (FI) 400.802 MHz Helsinki (FI) 0.00 km LOST
T4741041 RS41 2022-05-23 10:25:46 67.355 26.4804 253 ° 9 km/h 17485 m -45.0 m/s Sodankyla (FI) 405.300 MHz Sodankylä (FI) 0.00 km UNKNOWN
U1920099 RS41 2022-05-23 09:52:07 59.8076 24.8544 105 ° 7 km/h 676 m -2.5 m/s Vaisala Oyj (FI) 402.700 MHz Püünsi (EE) 0.00 km LOST
S3230379 RS41-SG 2022-05-23 09:49:25 47.129 7.15227 84 ° 13 km/h 1180 m -11.9 m/s Payerne (CH) 404.50 MHz Nidau (CH) 0.00 km UNKNOWN
S3230380 RS41-SG 2022-05-23 09:49:24 47.129 7.15223 91 ° 15 km/h 1194 m -12.5 m/s Payerne (CH) 403.50 MHz Nidau (CH) 0.00 km UNKNOWN
ME0B229D0 M10 2022-05-23 09:48:21 47.128 7.14515 55 ° 31 km/h 2118 m -12.1 m/s Payerne (CH) 402.000 MHz Nidau (CH) 0.00 km UNKNOWN
ME0B22A07 M10 2022-05-23 09:48:21 47.1276 7.14432 45 ° 33 km/h 2233 m -12.4 m/s Payerne (CH) 402.600 MHz Nidau (CH) 0.00 km UNKNOWN
U1950473 RS41 2022-05-23 09:45:32 59.8145 24.8406 198 ° 6 km/h 1805 m -2.6 m/s Katajaluoto (FI) 402.000 MHz Püünsi (EE) 0.00 km LOST
SC500EB9 SRSC50 2022-05-23 09:35:36 47.0286 8.84864 274 ° 44 km/h 30963 m 5.9 m/s Meiringen (CH) MHz Einsiedeln (CH) 0.00 km UNKNOWN
D17047158 DFM09 2022-05-23 09:16:22 47.802 11.9893 279 ° 15 km/h 879 m -3.3 m/s Altenstadt (DE) 402.508 MHz Rosenheim (DE) 0.00 km UNKNOWN
U1730682 RS41 2022-05-23 09:07:07 59.9495 24.8117 144 ° 11 km/h 457 m -4.3 m/s Vaisala Oyj (FI) 401.800 MHz Helsinki (FI) 0.00 km LOST
T1330086 RS41 2022-05-23 09:04:21 52.9041 8.10382 297 ° 22 km/h 193 m -4.1 m/s Meppen (DE) 405.100 MHz Cloppenburg (DE) 0.00 km UNKNOWN
U1550810 RS41 2022-05-23 09:04:09 59.9538 24.8032 120 ° 7 km/h 1387 m -4.7 m/s Vaisala Oyj (FI) 402.400 MHz Helsinki (FI) 0.00 km LOST
U1810718 RS41-SGP 2022-05-23 08:56:58 59.6818 24.4176 275 ° 17 km/h 2790 m -13.0 m/s Porkkala (FI) 403.401 MHz Suurupi (EE) 0.00 km LOST
T3410576 RS41 2022-05-23 07:59:46 51.5991 15.1634 294 ° 26 km/h 498 m -3.8 m/s Lindenberg (DE) 405.10 MHz Żary (PL) 0.00 km UNKNOWN
SC500E6C SRSC50 2022-05-23 07:54:30 46.9866 9.23337 80 ° 69 km/h 4540 m -3.4 m/s Meiringen (CH) MHz Glarus (CH) 0.00 km UNKNOWN
SC500EE6 SRSC50 2022-05-23 07:40:12 47.563 9.83355 81 ° 61 km/h 5184 m -3.5 m/s Frauenfeld (CH) 403.902 MHz Hörbranz (AT) 0.00 km UNKNOWN
U0260343 RS41 2022-05-23 07:37:22 39.7479 23.7299 97 ° 7 km/h 74 m -6.3 m/s Thessaloniki (GR) 403.000 MHz Néos Marmarás (GR) 0.00 km LOST
T2930457 RS41 2022-05-23 07:36:33 49.6087 14.8587 321 ° 13 km/h 704 m -9.8 m/s Praha (CZ) 401.10 MHz Vlašim (CZ) 0.00 km UNKNOWN
S3520038 RS41 2022-05-23 07:27:01 47.5577 11.6487 101 ° 48 km/h 1805 m -4.0 m/s Hohenpeissenberg (DE) 402.90 MHz Achenkirch (AT) 0.00 km UNKNOWN
T0510496 RS41-SGP 2022-05-23 07:23:46 36.9817 -96.5225 68 ° 85 km/h 9058 m -23.7 m/s Lamont [OK] (US) 400.501 MHz Arkansas City [KS] (US) 0.00 km UNKNOWN
T0840132 RS41 2022-05-23 07:23:43 60.5746 23.5256 168 ° 6 km/h 636 m -13.8 m/s Jokioinen (FI) 403.000 MHz Somero (FI) 0.00 km UNKNOWN
U1620026 RS41 2022-05-23 07:13:17 48.9211 10.6159 309 ° 31 km/h 695 m -2.5 m/s Stuttgart (DE) 404.50 MHz Ellwangen (DE) 0.00 km UNKNOWN
LMS6CD2E5 LMS6 2022-05-23 07:11:20 31.1235 35.9064 66 ° 81 km/h 16404 m 3.6 m/s Mifrasit Base (IL) 400.262 MHz Dimona (IL) 0.00 km UNKNOWN
ME0B228FE M10 2022-05-23 07:09:22 42.6545 22.5361 136 ° 26 km/h 1766 m -12.9 m/s Niš (RS) 402.398 MHz Bosilegrad (RS) 0.00 km UNKNOWN
ME0B22870 M10 2022-05-23 07:07:07 44.161 20.9144 136 ° 6 km/h 721 m -11.2 m/s Belgrade (RS) 402.800 MHz Rača (RS) 0.00 km UNKNOWN
T0510343 RS41 2022-05-23 07:06:02 29.7765 -94.5271 132 ° 20 km/h 3174 m -15.2 m/s Houston [TX] (US) 404.501 MHz Baytown [TX] (US) 0.00 km UNKNOWN
T5040546 RS41 2022-05-23 07:03:30 42.0537 24.0978 135 ° 102 km/h 5177 m -11.9 m/s Sofia (BG) 405.300 MHz Dorkovo (BG) 0.00 km UNKNOWN
D21046819 DFM 2022-05-23 06:52:18 47.9253 18.0851 265 ° 13 km/h 261 m -10.2 m/s Záhorie (SK) 403.632 MHz Nesvady (SK) 0.00 km UNKNOWN
T2950499 RS41 2022-05-23 06:49:17 49.8065 8.12315 303 ° 9 km/h 338 m -11.5 m/s Idar-Oberstein (DE) 402.700 MHz Bad Kreuznach (DE) 0.00 km UNKNOWN
U1230088 RS41 2022-05-23 06:21:26 51.5702 -1.28635 37 ° 83 km/h 11427 m -5.0 m/s Larkhill (GB) 404.400 MHz Didcot (GB) 0.00 km UNKNOWN
T1330085 RS41 2022-05-23 06:05:37 52.8099 8.37623 318 ° 28 km/h 183 m -4.6 m/s Meppen (DE) 404.500 MHz Vechta (DE) 0.00 km UNKNOWN
ME9700277 M20 2022-05-23 06:01:48 45.5918 15.229 358 ° 9 km/h 1503 m -10.5 m/s Ljubljana (SI) 403.003 MHz Črnomelj (SI) 0.00 km FOUND
T1630415 RS41 2022-05-23 05:59:20 35.044 34.1136 148 ° 24 km/h 19864 m 7.3 m/s Nicosia (CY) 403.001 MHz Paralímni (CY) 0.00 km LOST
LMS6CCEE5 LMS6 2022-05-23 05:55:44 31.1739 35.7638 66 ° 154 km/h 10216 m -19.3 m/s Mifrasit Base (IL) 400.260 MHz Dimona (IL) 0.00 km UNKNOWN
T1240732 RS41 2022-05-23 05:48:30 47.5631 11.738 13 ° 11 km/h 1655 m -7.2 m/s Altenstadt (DE) 402.50 MHz Achenkirch (AT) 0.00 km UNKNOWN
SC500E55 SRSC50 2022-05-23 04:58:54 46.8259 9.10712 74 ° 46 km/h 9095 m -3.0 m/s Meiringen (CH) MHz Glarus (CH) 0.00 km LOST
P5020196 RS41 2022-05-23 04:22:00 46.3631 16.2886 216 ° 11 km/h 255 m -4.2 m/s Graz (AT) 404.70 MHz Središče ob Dravi (SI) 0.00 km FOUND
S2421009 RS41-SG 2022-05-23 04:12:56 46.8596 12.2363 122 ° 50 km/h 4137 m -4.6 m/s Innsbruck (AT) 404.10 MHz Virgen (AT) 0.00 km FOUND
S4430347 RS41 2022-05-23 04:12:32 47.5832 15.3194 22 ° 19 km/h 1503 m -2.6 m/s Linz (AT) 403.40 MHz Thörl (AT) 0.00 km UNKNOWN
SC500CE6 SRSC50 2022-05-23 04:10:22 47.39 9.76168 80 ° 41 km/h 4691 m -13.9 m/s Frauenfeld (CH) 403.902 MHz Dornbirn (AT) 0.00 km UNKNOWN
SC500E40 SRSC50 2022-05-23 03:49:30 46.8101 8.93827 136 ° 19 km/h 17498 m -13.5 m/s Meiringen (CH) MHz Schattdorf (CH) 0.00 km UNKNOWN
T1040900 RS41 2022-05-23 03:24:31 36.8182 -5.90245 145 ° 39 km/h 1473 m -2.2 m/s Huelva (ES) 402.500 MHz Arcos de la Frontera (ES) 0.00 km UNKNOWN
T3210057 RS41 2022-05-23 02:59:52 41.2171 12.8063 246 ° 4 km/h 73 m -2.3 m/s Pratica di Mare (IT) 402.70 MHz Sabaudia (IT) 0.00 km LOST
T1720787 RS41 2022-05-23 02:36:58 55.6079 -4.37151 51 ° 56 km/h 3644 m -1.8 m/s Castor Bay (IE) 403.90 MHz Galston (GB) 0.00 km UNKNOWN
D21045792 DFM17 2022-05-23 02:29:10 41.0202 -87.1261 68 ° 100 km/h 4256 m -2.2 m/s Lincoln [IL] (US) 403.610 MHz Lowell [IN] (US) 0.00 km UNKNOWN
T3350266 RS41 2022-05-23 02:27:05 47.4385 13.0653 102 ° 54 km/h 2988 m -2.6 m/s München (DE) 402.30 MHz Werfen (AT) 0.00 km UNKNOWN
S3230074 RS41-SG 2022-05-23 02:24:25 46.8519 7.72487 38 ° 28 km/h 1533 m -2.7 m/s Payerne (CH) 403.50 MHz Konolfingen Dorf (CH) 0.00 km UNKNOWN
ME9202962 M20 2022-05-23 02:22:30 44.281 4.86416 336 ° 19 km/h 816 m -3.2 m/s Nîmes (FR) 402.002 MHz Bollène (FR) 0.00 km UNKNOWN
IMS10C9E2 MEISEI 2022-05-23 02:21:30 1.20323 103.528 328 ° 7 km/h 528 m -9999.0 m/s Singapore (SG) 401.899 MHz 0.00 km LOST
D21046375 DFM17 2022-05-23 02:20:30 37.3174 -79.4784 90 ° 22 km/h 295 m -1.9 m/s Blacksburg [VA] (US) 404.010 MHz Forest [VA] (US) 0.00 km UNKNOWN
T1550627 RS41 2022-05-23 02:14:43 47.3898 17.2643 246 ° 13 km/h 218 m -4.2 m/s Vienna (AT) 403.50 MHz Beled (HU) 0.00 km UNKNOWN
T1930532 RS41 2022-05-23 02:13:57 54.2586 10.9485 315 ° 20 km/h 65 m -1.8 m/s Schleswig (DE) 402.50 MHz Bad Schwartau (DE) 0.00 km FOUND
T1450452 RS41 2022-05-23 02:13:00 52.2124 6.02376 296 ° 17 km/h 133 m -7.2 m/s De Bilt (NL) 403.90 MHz Apeldoorn (NL) 0.00 km FOUND
S1940436 RS41 2022-05-23 02:11:44 43.2185 -2.45062 103 ° 72 km/h 7060 m -7.3 m/s Santander (ES) 401.50 MHz Elgóibar (ES) 0.00 km UNKNOWN
T3821070 RS41 2022-05-23 02:10:30 50.0934 11.4987 1 ° 22 km/h 1135 m -5.7 m/s Meiningen (DE) 402.30 MHz Kulmbach (DE) 0.00 km UNKNOWN
ME1722A1F M10 2022-05-23 02:08:00 45.8118 0.0746795 51 ° 26 km/h 278 m -2.0 m/s Bordeaux (FR) 401.997 MHz Champniers (FR) 0.00 km UNKNOWN
D21009455 DFM17 2022-05-23 02:06:00 33.78 -85.9374 341 ° 24 km/h 693 m -3.1 m/s Alabaster [AL] (US) 405.610 MHz Saks [AL] (US) 0.00 km UNKNOWN
T3330112 RS41 2022-05-23 02:02:07 53.382 14.4639 228 ° 9 km/h 659 m -2.8 m/s Greifswald (DE) 402.300 MHz Przecław (PL) 0.00 km FOUND
T4311224 RS41 2022-05-23 02:01:23 50.8388 -4.33919 43 ° 52 km/h 2517 m -4.2 m/s Camborne (GB) 403.30 MHz Bude (GB) 0.00 km UNKNOWN
D21009493 DFM17 2022-05-23 02:01:18 45.328 -91.0682 131 ° 24 km/h 3430 m -3.1 m/s Chanhassen [MN] (US) 403.611 MHz Chippewa Falls [WI] (US) 0.00 km UNKNOWN
SC500C93 SRSC50 2022-05-23 02:00:46 47.2069 10.2164 114 ° 59 km/h 5999 m -3.0 m/s Frauenfeld (CH) 403.903 MHz Sankt Anton am Arlberg (AT) 0.00 km UNKNOWN
T3050276 RS41 2022-05-23 02:00:29 39.0998 8.9735 6 ° 4 km/h 503 m -2.8 m/s Decimomannu (IT) 403.50 MHz Capoterra (IT) 0.00 km UNKNOWN
S0730895 RS41 2022-05-23 01:57:58 43.2561 -6.96748 69 ° 19 km/h 1687 m -3.9 m/s A Coruña (ES) 404.001 MHz Ribadeo (ES) 0.00 km UNKNOWN
D21038781 DFM17 2022-05-23 01:56:30 41.7347 -98.9611 306 ° 24 km/h 1192 m -3.6 m/s North Platte [NE] (US) 403.010 MHz 0.00 km UNKNOWN
D21039264 DFM17 2022-05-23 01:54:26 32.7561 -93.3465 64 ° 11 km/h 1639 m -4.0 m/s Shreveport [LA] (US) 403.011 MHz Minden [LA] (US) 0.00 km UNKNOWN
S5131173 RS41-NG 2022-05-23 01:50:00 43.5744 -76.4883 97 ° 52 km/h 3174 m -3.5 m/s Buffalo [NY] (US) 403.801 MHz Oswego [NY] (US) 0.00 km LOST
IMS7A19BF MEISEI 2022-05-23 01:47:42 40.5546 30.3456 128 ° 31 km/h 2255 m -9999.0 m/s Istanbul (TR) MHz Geyve (TR) 0.00 km UNKNOWN
T0951106 RS41-SGP 2022-05-23 01:47:34 39.9669 3.26134 45 ° 26 km/h 85 m -5.4 m/s Palma (ES) 402.00 MHz Alcudia (ES) 0.00 km LOST
S3720152 RS41-SGP 2022-05-23 01:45:31 48.1279 20.8798 155 ° 15 km/h 1255 m -17.2 m/s Poprad (SK) 400.600 MHz Onga (HU) 0.00 km UNKNOWN
ME1622E9D M10 2022-05-23 01:45:10 38.2223 -0.47048 118 ° 35 km/h 68 m -4.4 m/s Murcia (ES) 403.399 MHz Santa Pola (ES) 0.00 km LOST
T5130577 RS41 2022-05-23 01:43:00 42.3863 -115.12 116 ° 33 km/h 1479 m -4.6 m/s Boise [ID] (US) 404.800 MHz Twin Falls [ID] (US) 0.00 km UNKNOWN
ME1623334 M10 2022-05-23 01:41:18 49.1069 2.55714 337 ° 15 km/h 1555 m -11.4 m/s Trappes (FR) 402.001 MHz Fosses (FR) 0.00 km UNKNOWN
T3230456 RS41 2022-05-23 01:40:30 -30.1454 -49.7013 134 ° 33 km/h 3163 m -2.5 m/s Porto Alegre (BR) 403.001 MHz 0.00 km LOST
U1620025 RS41 2022-05-23 01:39:48 48.4779 10.6098 317 ° 28 km/h 631 m -3.0 m/s Stuttgart (DE) 404.50 MHz Dillingen (DE) 0.00 km UNKNOWN
U0830594 RS41 2022-05-23 01:38:50 57.37 13.4777 353 ° 11 km/h 1943 m -3.1 m/s Göteborg (SE) 405.30 MHz Gislaved (SE) 0.00 km UNKNOWN
U1450455 RS41 2022-05-23 01:38:39 51.4431 7.93916 291 ° 13 km/h 320 m -2.9 m/s Essen (DE) 405.30 MHz Arnsberg (DE) 0.00 km FOUND
LMS6CF4DA LMS6 2022-05-23 01:37:55 42.2289 -88.5747 125 ° 44 km/h 2554 m -5.2 m/s Davenport [IA] (US) 401.012 MHz Huntley [IL] (US) 0.00 km UNKNOWN
S4030888 RS41 2022-05-23 01:37:27 54.5 24.0394 128 ° 11 km/h 171 m -12.6 m/s Kaunas (LT) 401.000 MHz Miklusėnai (LT) 0.00 km UNKNOWN
D20073251 DFM 2022-05-23 01:36:12 2.60447 101.269 51 ° 15 km/h 454 m -12.1 m/s Kuala Lumpur (MY) 401.110 MHz 0.00 km LOST
T1120155 RS41 2022-05-23 01:35:58 28.1136 -16.0467 108 ° 44 km/h 11323 m -6.5 m/s Guimar (ES) 402.000 MHz San Nicolás (ES) 0.00 km LOST
D21040109 DFM17 2022-05-23 01:35:34 37.7444 -92.4251 35 ° 135 km/h 11443 m -6.4 m/s Springfield [MO] (US) 403.011 MHz Lebanon [MO] (US) 0.00 km UNKNOWN
T0951617 RS41-SG 2022-05-23 01:32:00 -23.3554 151.234 330 ° 59 km/h 409 m -5.8 m/s Rockhampton (AU) 401.501 MHz Gladstone (AU) 0.00 km LOST
U1150532 RS41 2022-05-23 01:29:30 51.2419 1.07161 359 ° 7 km/h 172 m -3.1 m/s Herstmonceux (GB) 405.800 MHz Canterbury (GB) 0.00 km UNKNOWN
T3140371 RS41 2022-05-23 01:28:13 39.7103 18.5554 164 ° 26 km/h 2897 m -4.9 m/s Galatina (IT) 403.50 MHz Tricase (IT) 0.00 km LOST
D20044684 DFM09P 2022-05-23 01:27:00 44.7515 -63.0197 29 ° 41 km/h 198 m -10.6 m/s Shearwater [NS] (CA) 402.510 MHz 0.00 km LOST
D21053554 DFM17 2022-05-23 01:26:12 43.0823 -107.691 101 ° 33 km/h 3914 m -6.7 m/s Riverton [WY] (US) 403.010 MHz Riverton [WY] (US) 0.00 km UNKNOWN
ME9A01941 M20 2022-05-23 01:25:47 54.064 18.0768 153 ° 9 km/h 397 m -6.9 m/s Łeba (PL) 403.603 MHz Kościerzyna (PL) 0.00 km UNKNOWN
ME1722A2E M10 2022-05-23 01:25:36 45.2963 -0.43959 261 ° 15 km/h 30430 m -46.2 m/s Bordeaux (FR) 402.401 MHz Saint-André-de-Cubzac (FR) 0.00 km UNKNOWN
D21052913 DFM17 2022-05-23 01:25:00 38.5975 -118.701 136 ° 111 km/h 8606 m -3.3 m/s 404.810 MHz Gardnerville Ranchos [NV] (US) 0.00 km UNKNOWN
T2250476 RS41 2022-05-23 01:24:48 -37.3865 145.461 220 ° 4 km/h 315 m -6.3 m/s Melbourne (AU) 401.500 MHz Yarra Glen (AU) 0.00 km UNKNOWN
T3410573 RS41 2022-05-23 01:23:47 51.5937 14.6785 291 ° 26 km/h 585 m -13.5 m/s Lindenberg (DE) 405.10 MHz Łęknica (PL) 0.00 km UNKNOWN
LMS6CF2EE LMS6 2022-05-23 01:23:34 40.0959 -103.42 76 ° 144 km/h 10293 m -3.6 m/s Denver [CO] (US) 400.261 MHz Fort Morgan [CO] (US) 0.00 km UNKNOWN
MRZEB3023 MP3H 2022-05-23 01:23:00 56.1114 44.2711 154 ° 17 km/h 317 m -14.5 m/s Niznij Novgorod (RU) 403.000 MHz Kstovo (RU) 0.00 km UNKNOWN
T4510635 RS41-SG 2022-05-23 01:22:17 -34.7256 139.305 209 ° 22 km/h 1233 m -6.1 m/s Adelaide (AU) 401.501 MHz Mannum (AU) 0.00 km UNKNOWN
D20072067 DFM 2022-05-23 01:21:02 5.1881 99.8172 353 ° 6 km/h 1430 m -14.5 m/s Bayan Lepas (MY) 400.170 MHz 0.00 km LOST
ME0A2274F M10 2022-05-23 01:20:30 48.6306 -4.17142 147 ° 30 km/h 800 m -14.6 m/s Guipavas (FR) 404.000 MHz Lesneven (FR) 0.00 km UNKNOWN
T3140627 RS41 2022-05-23 01:19:41 37.6661 12.433 300 ° 13 km/h 64 m -7.8 m/s Trapani-Birgi (IT) 404.500 MHz Petrosino (IT) 0.00 km LOST
ME9A01526 M20 2022-05-23 01:18:38 50.3767 17.476 190 ° 2 km/h 967 m -11.3 m/s Wrocław (PL) 403.000 MHz Prudnik (PL) 0.00 km UNKNOWN
T3330427 RS41 2022-05-23 01:18:30 -29.6519 -56.4381 221 ° 20 km/h 579 m -3.9 m/s Uruguaiana (BR) 403.721 MHz La Cruz (AR) 0.00 km UNKNOWN
U0650778 RS41 2022-05-23 01:18:28 67.1732 26.7301 154 ° 26 km/h 10601 m -27.1 m/s Sodankyla (FI) 404.000 MHz Sodankylä (FI) 0.00 km UNKNOWN
T4810503 RS41 2022-05-23 01:18:00 44.386 -121.922 106 ° 26 km/h 4409 m -9.2 m/s Salem [OR] (US) 401.40 MHz Redmond [OR] (US) 0.00 km UNKNOWN
T0820034 RS41 2022-05-23 01:17:40 60.5857 23.4977 70 ° 7 km/h 500 m -16.4 m/s Jokioinen (FI) 403.000 MHz Somero (FI) 0.00 km UNKNOWN
S2353048 RS92 2022-05-23 01:17:34 30.354 -81.5163 54 ° 43 km/h 5628 m -5.6 m/s Jacksonville [FL] (US) 1675.999 MHz Atlantic Beach [FL] (US) 0.00 km UNKNOWN
SC500ED2 SRSC50 2022-05-23 01:17:30 46.7138 9.14669 74 ° 50 km/h 8521 m -3.4 m/s Meiringen (CH) MHz Domat/Ems (CH) 0.00 km UNKNOWN
T1050944 RS41 2022-05-23 01:16:58 40.3624 -2.64311 126 ° 20 km/h 1239 m -6.5 m/s Madrid (ES) 403.000 MHz Cuenca (ES) 0.00 km UNKNOWN
T3240110 RS41 2022-05-23 01:16:00 -25.8835 -47.4161 105 ° 254 km/h 11759 m -7.9 m/s Curitiba (BR) 403.000 MHz 0.00 km LOST
T4321246 RS41-SG 2022-05-23 01:15:31 52.3172 -9.46758 103 ° 33 km/h 2300 m -14.9 m/s Cahersiveen (IE) 405.30 MHz Listowel (IE) 0.00 km UNKNOWN
T4711046 RS41 2022-05-23 01:15:20 59.0915 24.5916 241 ° 13 km/h 217 m -13.8 m/s Tallinn (EE) 404.001 MHz Kohila (EE) 0.00 km UNKNOWN
T4210603 RS41 2022-05-23 01:13:25 44.0513 27.2628 224 ° 39 km/h 483 m -13.6 m/s Bucarest (RO) 403.921 MHz Kalipetrovo (BG) 0.00 km UNKNOWN
T4310786 RS41-SG 2022-05-23 01:13:10 53.4349 -0.26626 45 ° 31 km/h 906 m -3.3 m/s Watnall (GB) 405.501 MHz Waltham (GB) 0.00 km UNKNOWN
T1910945 RS41 2022-05-23 01:12:00 59.0606 6.49531 25 ° 41 km/h 2684 m -13.0 m/s Stavanger (NO) 403.000 MHz Hjelmeland (NO) 0.00 km UNKNOWN
T0440130 RS41 2022-05-23 01:11:58 29.7844 -94.6049 169 ° 37 km/h 3403 m -10.8 m/s Houston [TX] (US) 404.501 MHz Baytown [TX] (US) 0.00 km UNKNOWN
D21011683 DFM17 2022-05-23 01:11:54 40.5941 -110.902 131 ° 31 km/h 18666 m -10.7 m/s Salt Lake City [UT] (US) 405.010 MHz Heber [UT] (US) 0.00 km UNKNOWN
T3010045 RS41-SGP 2022-05-23 01:10:30 49.6088 8.13577 270 ° 15 km/h 396 m -14.0 m/s Idar-Oberstein (DE) 402.700 MHz Worms (DE) 0.00 km UNKNOWN
T4950118 RS41 2022-05-23 01:10:19 51.9278 21.0982 182 ° 46 km/h 545 m -12.6 m/s Legionowo (PL) 404.50 MHz Góra Kalwaria (PL) 0.00 km FOUND
T3431779 RS41 2022-05-23 01:10:17 53.706 7.92728 305 ° 28 km/h 102 m -8.9 m/s Norderney (DE) 405.30 MHz Wittmund (DE) 0.00 km UNKNOWN
T1120843 RS41 2022-05-23 01:10:11 48.8447 17.5667 236 ° 28 km/h 658 m -14.1 m/s Prostějov (CZ) 402.10 MHz Myjava (SK) 0.00 km UNKNOWN
T5110359 RS41 2022-05-23 01:10:02 46.7151 19.7914 257 ° 26 km/h 254 m -16.1 m/s Budapest (HU) 403.200 MHz Kiskunfélegyháza (HU) 0.00 km UNKNOWN
D22001555 DFM17 2022-05-23 01:09:36 3.66554 102.755 80 ° 19 km/h 1901 m -13.0 m/s Kuantan (MY) 402.010 MHz 0.00 km UNKNOWN
T3730623 RS41 2022-05-23 01:09:28 45.3506 16.4887 161 ° 4 km/h 257 m -15.1 m/s Zagreb (HR) 402.00 MHz Sunja (HR) 0.00 km UNKNOWN
T1920805 RS41-SGP 2022-05-23 01:07:40 56.8348 4.28616 77 ° 76 km/h 10920 m -28.9 m/s Ekofisk (NO) 403.00 MHz 0.00 km LOST
T3810095 RS41 2022-05-23 01:06:52 43.6671 15.7556 162 ° 11 km/h 200 m -10.0 m/s Zadar (HR) 403.00 MHz Tribunj (HR) 0.00 km LOST
T3110964 RS41 2022-05-23 01:06:31 45.6422 14.0339 322 ° 30 km/h 619 m -7.4 m/s Udine-Rivolto (IT) 404.00 MHz Divača (SI) 0.00 km UNKNOWN
T4340041 RS41-SGP 2022-05-23 01:06:00 47.7673 -123.739 114 ° 46 km/h 5151 m -13.3 m/s Quillayute [WA] (US) 404.600 MHz Port Angeles [WA] (US) 0.00 km UNKNOWN
T2930814 RS41 2022-05-23 01:05:32 49.557 14.9103 301 ° 11 km/h 1185 m -16.6 m/s Praha (CZ) 404.20 MHz Vlašim (CZ) 0.00 km UNKNOWN
S5021167 RS41-SG 2022-05-23 01:05:00 -34.974 147.87 254 ° 13 km/h 1652 m -13.8 m/s Wagga Wagga (AU) 401.501 MHz Junee (AU) 0.00 km UNKNOWN
T4420189 RS41 2022-05-23 01:02:56 -27.487 153.995 79 ° 37 km/h 4453 m -6.8 m/s Brisbane (AU) 401.50 MHz Mount Cotton (AU) 0.00 km LOST
U1060055 RS41-SG 2022-05-23 01:02:00 55.4597 -0.79454 45 ° 87 km/h 5188 m -9.6 m/s Albemarle (GB) 405.101 MHz Amble (GB) 0.00 km LOST
T3240332 RS41 2022-05-23 01:01:54 -27.8712 -47.3982 223 ° 11 km/h 107 m -12.7 m/s Florianopolis (BR) 405.300 MHz 0.00 km LOST
T3441709 RS41 2022-05-23 01:01:00 -32.7306 152.415 98 ° 78 km/h 12380 m -15.7 m/s Williamtown (AU) 402.501 MHz Nelson Bay (AU) 0.00 km LOST
ME0B228EA M10 2022-05-23 01:00:44 42.7727 22.5566 126 ° 17 km/h 1385 m -15.3 m/s Niš (RS) 402.400 MHz Tran (BG) 0.00 km UNKNOWN
ME2122F87 M10 2022-05-23 01:00:00 41.9393 2.80398 32 ° 46 km/h 3924 m -3.7 m/s Barcelona (ES) 404.000 MHz Salt (ES) 0.00 km UNKNOWN
T3241168 RS41 2022-05-23 00:59:30 -25.929 -53.4248 126 ° 91 km/h 9138 m -5.8 m/s Foz Do Iguacu (BR) 403.012 MHz Bernardo de Irigoyen (AR) 0.00 km UNKNOWN
T5110348 RS41 2022-05-23 00:59:06 45.5953 20.7103 181 ° 28 km/h 555 m -16.1 m/s Szeged (HU) 402.30 MHz Nova Crnja (RS) 0.00 km UNKNOWN
T1851043 RS41-SG 2022-05-23 00:58:56 44.5037 7.91565 3 ° 13 km/h 937 m -5.5 m/s Cuneo-Levaldigi (IT) 402.80 MHz Fossano (IT) 0.00 km UNKNOWN
ME0B2287E M10 2022-05-23 00:58:35 44.1401 21.1267 151 ° 13 km/h 328 m -10.7 m/s Belgrade (RS) 402.799 MHz Batočina (RS) 0.00 km FOUND
LMS6CF797 LMS6 2022-05-23 00:57:47 39.4936 -94.6227 240 ° 26 km/h 649 m -11.9 m/s Topeka [KS] (US) 400.260 MHz Smithville [MO] (US) 0.00 km UNKNOWN
T4751328 RS41 2022-05-23 00:56:54 37.1101 -121.633 150 ° 50 km/h 3896 m -14.6 m/s Oakland [CA] (US) 404.000 MHz Morgan Hill [CA] (US) 0.00 km UNKNOWN
T5220035 RS41-SGP 2022-05-23 00:55:55 44.4042 12.0696 10 ° 26 km/h 107 m -15.0 m/s San Pietro Capofiume (IT) 404.60 MHz Russi (IT) 0.00 km FOUND
IMSF7AA1 MEISEI 2022-05-23 00:55:36 -7.4463 112.484 206 ° 24 km/h 10469 m -9999.0 m/s 403.602 MHz 0.00 km UNKNOWN
T4430358 RS41-SGP 2022-05-23 00:51:52 32.491 -116.771 15 ° 22 km/h 1697 m -10.7 m/s San Diego [CA] (US) 400.900 MHz Chula Vista [CA] (US) 0.00 km UNKNOWN
T3030578 RS41 2022-05-23 00:51:15 45.436 9.39777 103 ° 28 km/h 287 m -6.5 m/s Cameri (IT) 402.00 MHz Paullo (IT) 0.00 km UNKNOWN
T3820100 RS41 2022-05-23 00:49:50 40.0692 23.6571 173 ° 33 km/h 688 m -13.3 m/s Thessaloniki (GR) 403.000 MHz Néos Marmarás (GR) 0.00 km LOST
U0730293 RS41 2022-05-23 00:46:38 -32.5796 117.483 122 ° 187 km/h 8539 m -11.3 m/s Perth (AU) 401.500 MHz Narrogin (AU) 0.00 km UNKNOWN
T1311042 RS41 2022-05-23 00:45:45 52.4955 11.172 332 ° 24 km/h 742 m -12.5 m/s Bergen (DE) 405.70 MHz Wolfsburg (DE) 0.00 km UNKNOWN
IMET90175 iMET 2022-05-23 00:36:00 50.9385 6.0243 315 ° 22 km/h 192 m -7.1 m/s Beauvechain (BE) 402.999 MHz Ubach over Worms (NL) 0.00 km FOUND
IMSF7950 MEISEI 2022-05-23 00:35:00 3.52727 98.613 267 ° 109 km/h 21925 m -9999.0 m/s 403.704 MHz 0.00 km UNKNOWN
D19025684 DFM09P 2022-05-23 00:22:12 3.25964 104.799 113 ° 78 km/h 28458 m -25.6 m/s 402.872 MHz 0.00 km LOST
T0950478 RS41 2022-05-23 00:08:46 -29.4593 150.257 47 ° 31 km/h 19112 m 5.0 m/s Moree (AU) 400.500 MHz Moree (AU) 0.00 km UNKNOWN
T4110468 RS41-SG 2022-05-22 23:50:48 -40.5686 176.058 31 ° 46 km/h 3601 m -9.6 m/s Paraparaumu (NZ) 400.501 MHz Pahiatua (NZ) 0.00 km UNKNOWN
D21010455 DFM17 2022-05-22 23:43:28 32.8502 37.2388 83 ° 7 km/h 24229 m -38.7 m/s Al-Mafraq (JO) 403.810 MHz 0.00 km UNKNOWN
SC500D6F SRSC50 2022-05-22 22:41:50 46.6791 9.02911 98 ° 65 km/h 11540 m -8.2 m/s Meiringen (CH) 404.199 MHz Schattdorf (CH) 0.00 km UNKNOWN
SC500C9E SRSC50 2022-05-22 22:31:08 47.2143 9.9071 105 ° 63 km/h 3698 m -5.0 m/s Frauenfeld (CH) 403.902 MHz Bludenz (AT) 0.00 km UNKNOWN
SC500E77 SRSC50 2022-05-22 19:39:50 46.6072 9.4167 107 ° 67 km/h 7049 m -3.5 m/s Hinterrhein (CH) 404.099 MHz Domat/Ems (CH) 0.00 km UNKNOWN
SC500C89 SRSC50 2022-05-22 19:33:58 47.2228 10.0282 107 ° 76 km/h 5505 m -5.5 m/s Frauenfeld (CH) 403.902 MHz Mittelberg (AT) 0.00 km UNKNOWN
SC500CA6 SRSC50 2022-05-22 19:28:54 47.2758 9.84175 116 ° 72 km/h 4505 m -11.8 m/s Frauenfeld (CH) 403.999 MHz Ludesch (AT) 0.00 km UNKNOWN
T0820026 RS41 2022-05-22 19:24:13 60.5637 23.459 65 ° 28 km/h 360 m -15.8 m/s Jokioinen (FI) 403.000 MHz Somero (FI) 0.00 km UNKNOWN
T4551166 RS41 2022-05-22 19:19:08 -27.5345 154.299 97 ° 83 km/h 6000 m -7.9 m/s Brisbane (AU) 401.50 MHz 0.00 km LOST
ME0B22AC0 M10 2022-05-22 19:14:22 42.7733 22.5242 143 ° 22 km/h 1977 m -12.9 m/s Niš (RS) 402.400 MHz Tran (BG) 0.00 km UNKNOWN
T0520870 RS41-SGP 2022-05-22 19:09:51 29.721 -94.7672 155 ° 13 km/h 2000 m -14.2 m/s Houston [TX] (US) 404.501 MHz Baytown [TX] (US) 0.00 km LOST
T3420012 RS41 2022-05-22 19:07:06 51.3718 14.9777 99 ° 17 km/h 1533 m -6.4 m/s Lindenberg (DE) 405.10 MHz Gozdnica (PL) 0.00 km LOST
ME0B22864 M10 2022-05-22 19:03:42 44.1969 21.0621 158 ° 28 km/h 672 m -13.3 m/s Belgrade (RS) 402.801 MHz Lapovo (RS) 0.00 km UNKNOWN
T2951040 RS41-SGP 2022-05-22 18:51:11 49.5095 8.12063 239 ° 11 km/h 489 m -11.0 m/s Idar-Oberstein (DE) 402.70 MHz Frankenthal (DE) 0.00 km UNKNOWN
SC500EC2 SRSC50 2022-05-22 16:30:46 46.5985 9.19697 92 ° 80 km/h 9710 m -7.4 m/s Meiringen (CH) MHz Domat/Ems (CH) 0.00 km UNKNOWN
SC500CC2 SRSC50 2022-05-22 16:07:10 47.1998 9.89711 107 ° 78 km/h 9841 m -23.2 m/s Frauenfeld (CH) 403.903 MHz Bludenz (AT) 0.00 km UNKNOWN
ME9500202 M20 2022-05-22 15:01:00 47.0265 18.3864 147 ° 33 km/h 420 m -2.4 m/s Vienna (AT) 403.501 MHz Polgárdi (HU) 0.00 km UNKNOWN
U1620029 RS41 2022-05-22 15:00:13 47.8991 11.1658 203 ° 9 km/h 1051 m -4.4 m/s Stuttgart (DE) 404.50 MHz Weilheim in Oberbayern (DE) 0.00 km FOUND
T1720763 RS41 2022-05-22 14:55:56 55.73 -3.76223 41 ° 43 km/h 827 m -2.4 m/s Castor Bay (IE) 403.900 MHz Carluke (GB) 0.00 km UNKNOWN
T1030804 RS41 2022-05-22 14:33:52 37.6273 -5.82218 88 ° 11 km/h 1211 m -2.9 m/s Huelva (ES) 402.500 MHz Cantillana (ES) 0.00 km UNKNOWN
T5140092 RS41-NG 2022-05-22 14:28:27 43.0764 -114.528 9 ° 6 km/h 1254 m -2.7 m/s Boise [ID] (US) 404.600 MHz Jerome [ID] (US) 0.00 km UNKNOWN
S1940406 RS41 2022-05-22 14:27:38 44.4929 -3.26673 59 ° 31 km/h 801 m -5.1 m/s Santander (ES) 401.500 MHz 0.00 km LOST
ME1722A2B M10 2022-05-22 14:21:30 45.6271 0.205211 18 ° 15 km/h 461 m -1.8 m/s Bordeaux (FR) 402.000 MHz Soyaux (FR) 0.00 km UNKNOWN
T1010915 RS41-SGP 2022-05-22 14:19:35 39.814 3.05201 198 ° 11 km/h 123 m -3.4 m/s Palma (ES) 402.00 MHz La Puebla (ES) 0.00 km UNKNOWN
D21009943 DFM17 2022-05-22 14:19:17 45.2667 -90.941 114 ° 28 km/h 2628 m -4.0 m/s Chanhassen [MN] (US) 403.611 MHz Chippewa Falls [WI] (US) 0.00 km UNKNOWN
D21007415 DFM17 2022-05-22 14:13:00 33.4137 -86.4522 7 ° 13 km/h 375 m -3.4 m/s Alabaster [AL] (US) 405.610 MHz Leeds [AL] (US) 0.00 km UNKNOWN
T5130543 RS41-NG 2022-05-22 14:10:00 39.0682 -76.976 51 ° 50 km/h 6425 m -2.8 m/s Washington [VA] (US) 403.001 MHz Colesville [MD] (US) 0.00 km UNKNOWN
ME1622EA9 M10 2022-05-22 14:09:23 38.3072 -0.63394 3 ° 15 km/h 200 m -2.6 m/s Murcia (ES) 403.400 MHz Elche (ES) 0.00 km FOUND
ME1623330 M10 2022-05-22 14:06:33 48.9649 2.82289 306 ° 9 km/h 566 m -7.6 m/s Trappes (FR) 401.000 MHz Crégy-lès-Meaux (FR) 0.00 km FOUND
S3230084 RS41-SG 2022-05-22 14:06:00 46.5896 7.80608 29 ° 6 km/h 2526 m -3.8 m/s Payerne (CH) 403.50 MHz Unterseen (CH) 0.00 km UNKNOWN
D22001363 DFM17 2022-05-22 14:05:39 3.6542 102.715 48 ° 11 km/h 1246 m -8.8 m/s Kuantan (MY) 402.010 MHz 0.00 km UNKNOWN
LMS6CF362 LMS6 2022-05-22 14:01:45 39.6838 -93.3575 160 ° 52 km/h 1336 m -2.2 m/s Topeka [KS] (US) 400.262 MHz Marshall [MO] (US) 0.00 km UNKNOWN
IMS7A19BE MEISEI 2022-05-22 13:59:22 40.6561 29.3654 125 ° 17 km/h 251 m -9999.0 m/s Istanbul (TR) MHz Kılıç (TR) 0.00 km UNKNOWN
T4310127 RS41-SG 2022-05-22 13:59:07 50.6134 -4.50352 75 ° 28 km/h 1950 m -11.1 m/s Camborne (GB) 403.30 MHz Launceston (GB) 0.00 km UNKNOWN
T3821051 RS41 2022-05-22 13:57:38 49.7495 11.9674 141 ° 11 km/h 624 m -7.6 m/s Meiningen (DE) 402.30 MHz Weiden in der Oberpfalz (DE) 0.00 km FOUND
T3150153 RS41 2022-05-22 13:49:53 37.5679 12.4622 137 ° 30 km/h 41 m -5.9 m/s Trapani-Birgi (IT) 404.500 MHz Mazara del Vallo (IT) 0.00 km LOST
T5230305 RS41 2022-05-22 13:49:26 43.5998 -77.061 61 ° 94 km/h 3622 m -3.4 m/s Buffalo [NY] (US) 403.801 MHz Oswego [NY] (US) 0.00 km LOST
LMS6CF7AA LMS6 2022-05-22 13:44:21 42.3333 -87.9906 78 ° 87 km/h 2824 m -4.5 m/s Davenport [IA] (US) 401.008 MHz Gages Lake [IL] (US) 0.00 km UNKNOWN
T3350386 RS41 2022-05-22 13:43:39 47.5143 13.0153 100 ° 39 km/h 2057 m -4.2 m/s München (DE) 402.30 MHz Werfen (AT) 0.00 km UNKNOWN
T3410571 RS41 2022-05-22 13:43:17 51.4763 15.3031 115 ° 26 km/h 799 m -6.1 m/s Lindenberg (DE) 405.10 MHz Iłowa (PL) 0.00 km UNKNOWN
T3030577 RS41 2022-05-22 13:42:07 45.227 9.27681 126 ° 2 km/h 247 m -6.4 m/s Cameri (IT) 402.00 MHz Pavia (IT) 0.00 km FOUND
T0510412 RS41-SGP 2022-05-22 13:41:00 29.7872 -94.5796 56 ° 22 km/h 5522 m -9.5 m/s Houston [TX] (US) 404.501 MHz Baytown [TX] (US) 0.00 km UNKNOWN
ME9202978 M20 2022-05-22 13:40:00 43.9879 4.79423 24 ° 17 km/h 356 m -3.0 m/s Nîmes (FR) 402.002 MHz Villeneuve-lès-Avignon (FR) 0.00 km UNKNOWN
T3140308 RS41 2022-05-22 13:38:04 45.4673 13.7664 81 ° 9 km/h 339 m -4.0 m/s Udine-Rivolto (IT) 404.00 MHz Koper (SI) 0.00 km UNKNOWN
T1920830 RS41 2022-05-22 13:37:14 53.8046 10.8891 95 ° 13 km/h 131 m -2.5 m/s Schleswig (DE) 402.50 MHz Lübeck (DE) 0.00 km UNKNOWN
ME0A225EF M10 2022-05-22 13:37:00 48.7588 -3.99991 4 ° 9 km/h 1160 m -9.8 m/s Brest (FR) 404.000 MHz Saint-Pol-de-Léon (FR) 0.00 km LOST
T3050272 RS41 2022-05-22 13:34:41 38.9545 8.90093 94 ° 9 km/h 984 m -6.3 m/s Decimomannu (IT) 403.50 MHz Capoterra (IT) 0.00 km UNKNOWN
T3310036 RS41 2022-05-22 13:34:30 -29.8564 -52.2804 95 ° 30 km/h 3640 m -3.8 m/s Santa Maria (BR) 403.001 MHz Santa Cruz do Sul (BR) 0.00 km UNKNOWN
T0840812 RS41 2022-05-22 13:31:07 60.5891 23.5524 285 ° 17 km/h 478 m -11.7 m/s Jokioinen (FI) 403.000 MHz Somero (FI) 0.00 km UNKNOWN
D20013066 DFM09P 2022-05-22 13:30:00 44.5325 -63.2574 322 ° 2 km/h 1 m -10.4 m/s Shearwater [NS] (CA) 402.509 MHz 0.00 km LOST
T2311022 RS41 2022-05-22 13:29:47 -37.4417 145.406 3 ° 6 km/h 405 m -5.0 m/s Melbourne (AU) 401.500 MHz Yarra Glen (AU) 0.00 km UNKNOWN
SC500CA0 SRSC50 2022-05-22 13:29:24 47.198 9.83147 132 ° 24 km/h 14797 m -14.9 m/s Frauenfeld (CH) MHz Ludesch (AT) 0.00 km UNKNOWN
T3111064 RS41 2022-05-22 13:28:49 41.3075 12.4676 64 ° 7 km/h 311 m -8.9 m/s Pratica di Mare (IT) 402.70 MHz Anzio (IT) 0.00 km LOST
D21039865 DFM17 2022-05-22 13:27:34 37.5895 -92.4685 52 ° 170 km/h 13545 m -6.4 m/s Springfield [MO] (US) 403.011 MHz Lebanon [MO] (US) 0.00 km UNKNOWN
T4520261 RS41 2022-05-22 13:27:20 -34.6305 139.358 227 ° 37 km/h 845 m -5.7 m/s Adelaide (AU) 401.501 MHz Mannum (AU) 0.00 km UNKNOWN
T2951044 RS41-SGP 2022-05-22 13:26:36 49.2672 8.51885 161 ° 6 km/h 341 m -6.5 m/s Idar-Oberstein (DE) 402.70 MHz Hockenheim (DE) 0.00 km UNKNOWN
T3250628 RS41 2022-05-22 13:26:00 -25.8661 -52.7007 117 ° 24 km/h 5443 m -3.2 m/s Foz Do Iguacu (BR) 403.012 MHz 0.00 km UNKNOWN
SC500E5E SRSC50 2022-05-22 13:25:46 46.4804 9.47529 118 ° 72 km/h 7999 m -3.5 m/s Meiringen (CH) 404.101 MHz Domat/Ems (CH) 0.00 km UNKNOWN
LMS6C9A51 LMS6 2022-05-22 13:25:42 34.4999 -120.301 256 ° 31 km/h 29900 m -39.1 m/s Santa Maria [CA] (US) 400.266 MHz Solvang [CA] (US) 0.00 km UNKNOWN
T4330896 RS41 2022-05-22 13:25:36 61.129 -150.341 175 ° 9 km/h 9250 m -14.2 m/s Anchorage [AK] (US) 405.300 MHz Knik-Fairview [AK] (US) 0.00 km LOST
ME9A01947 M20 2022-05-22 13:25:30 54.4215 17.7791 147 ° 35 km/h 1093 m -9.0 m/s Łeba (PL) 403.603 MHz Lębork (PL) 0.00 km UNKNOWN
T0230243 RS41-SGP 2022-05-22 13:25:12 -23.5031 -45.4015 199 ° 17 km/h 1131 m -6.7 m/s São Paulo (BR) 405.301 MHz Caraguatatuba (BR) 0.00 km UNKNOWN
S0630312 RS41-SGP 2022-05-22 13:23:30 43.0664 -8.20237 173 ° 7 km/h 2921 m -8.8 m/s A Coruña (ES) 404.000 MHz Arzúa (ES) 0.00 km UNKNOWN
D21045711 DFM17 2022-05-22 13:23:08 40.6039 -87.6484 60 ° 80 km/h 3566 m -5.8 m/s Lincoln [IL] (US) 403.610 MHz Danville [IL] (US) 0.00 km UNKNOWN
D21046478 DFM17 2022-05-22 13:22:30 37.1842 -80.0392 87 ° 24 km/h 703 m -10.2 m/s Blacksburg [VA] (US) 404.010 MHz Cave Spring [VA] (US) 0.00 km UNKNOWN
S3720154 RS41 2022-05-22 13:22:09 48.5738 21.0238 235 ° 2 km/h 1241 m -15.6 m/s Poprad (SK) 400.60 MHz Moldava nad Bodvou (SK) 0.00 km UNKNOWN
MRZD13D87 MRZ 2022-05-22 13:21:30 56.109 44.5365 179 ° 24 km/h 736 m -14.7 m/s Niznij Novgorod (RU) 403.000 MHz Rabotki (RU) 0.00 km UNKNOWN
IMS10C9DF MEISEI 2022-05-22 13:21:13 1.22285 103.541 251 ° 6 km/h 108 m -9999.0 m/s Singapore (SG) 401.900 MHz 0.00 km LOST
U0660267 RS41 2022-05-22 13:20:46 67.1715 26.8812 126 ° 22 km/h 10908 m -22.2 m/s Sodankyla (FI) 404.000 MHz Pelkosenniemi (FI) 0.00 km UNKNOWN
T1040497 RS41 2022-05-22 13:20:08 41.3384 -2.85858 14 ° 44 km/h 2216 m -3.3 m/s Madrid (ES) 403.000 MHz Almazán (ES) 0.00 km UNKNOWN
T4741193 RS41 2022-05-22 13:19:50 44.0868 -122.181 196 ° 35 km/h 3936 m -15.4 m/s Salem [OR] (US) 401.40 MHz Sweet Home [OR] (US) 0.00 km UNKNOWN
D21052743 DFM17 2022-05-22 13:19:38 43.2536 -107.521 61 ° 26 km/h 4553 m -9.6 m/s Riverton [WY] (US) 403.010 MHz Riverton [WY] (US) 0.00 km UNKNOWN
T4320259 RS41-SG 2022-05-22 13:19:09 52.4142 -9.08345 52 ° 72 km/h 2845 m -11.1 m/s Cahersiveen (IE) 405.30 MHz Listowel (IE) 0.00 km UNKNOWN
D21039543 DFM17 2022-05-22 13:18:30 41.4832 -98.9593 91 ° 9 km/h 829 m -5.2 m/s North Platte [NE] (US) 403.010 MHz Grand Island [NE] (US) 0.00 km UNKNOWN
ME9A01533 M20 2022-05-22 13:18:28 50.6659 17.7661 143 ° 26 km/h 735 m -13.1 m/s Wrocław (PL) 403.000 MHz Niemodlin (PL) 0.00 km FOUND
T4210543 RS41 2022-05-22 13:17:30 44.1966 27.0726 126 ° 22 km/h 134 m -14.1 m/s Bucarest (RO) 403.921 MHz Aydemir (BG) 0.00 km UNKNOWN
T5110410 RS41-SGP 2022-05-22 13:16:13 46.914 19.953 151 ° 20 km/h 274 m -12.0 m/s Budapest (HU) 403.200 MHz Lakitelek (HU) 0.00 km FOUND
ME0B22876 M10 2022-05-22 13:16:01 44.3572 21.1015 159 ° 30 km/h 482 m -14.1 m/s Belgrade (RS) 402.800 MHz Velika Plana (RS) 0.00 km UNKNOWN
T4950551 RS41 2022-05-22 13:15:37 52.0966 21.5023 134 ° 48 km/h 899 m -10.9 m/s Legionowo (PL) 404.500 MHz Mińsk Mazowiecki (PL) 0.00 km UNKNOWN
D21007387 DFM17 2022-05-22 13:15:12 40.8056 -110.955 79 ° 76 km/h 16368 m -5.7 m/s Salt Lake City [UT] (US) 404.010 MHz Park City [UT] (US) 0.00 km UNKNOWN
T3140418 RS41 2022-05-22 13:14:51 39.9497 18.3686 243 ° 6 km/h 272 m -8.4 m/s Galatina (IT) 403.50 MHz Tricase (IT) 0.00 km UNKNOWN
T5040543 RS41 2022-05-22 13:12:30 42.3583 23.9327 110 ° 44 km/h 2007 m -14.0 m/s Sofia (BG) 405.301 MHz Kostenets (BG) 0.00 km UNKNOWN
ME0B22AD1 M10 2022-05-22 13:11:34 43.0374 22.4504 134 ° 54 km/h 3200 m -14.7 m/s Niš (RS) 402.400 MHz Babušnica (RS) 0.00 km UNKNOWN
T1110583 RS41 2022-05-22 13:11:24 28.1293 -16.0603 120 ° 63 km/h 11056 m -12.6 m/s Guimar (ES) 402.000 MHz San Nicolás (ES) 0.00 km LOST
U1450461 RS41 2022-05-22 13:11:06 51.0258 8.11451 143 ° 4 km/h 713 m -12.7 m/s Essen (DE) 405.30 MHz Lennestadt (DE) 0.00 km FOUND
T3750645 RS41 2022-05-22 13:09:58 43.6541 15.7648 83 ° 15 km/h 211 m -11.8 m/s Zadar (HR) 403.00 MHz Tribunj (HR) 0.00 km LOST
T3350564 RS41 2022-05-22 13:09:38 53.6149 14.0928 128 ° 17 km/h 383 m -6.1 m/s Greifswald (DE) 402.30 MHz Nowe (PL) 0.00 km UNKNOWN
T3430593 RS41 2022-05-22 13:07:28 53.2642 8.30878 236 ° 7 km/h 138 m -7.8 m/s Norderney (DE) 405.300 MHz Oldenburg (DE) 0.00 km UNKNOWN
T3730692 RS41 2022-05-22 13:07:25 45.3632 16.621 226 ° 4 km/h 177 m -14.3 m/s Zagreb (HR) 402.00 MHz Sunja (HR) 0.00 km UNKNOWN
T2010685 RS41 2022-05-22 13:06:41 38.5414 -8.63811 67 ° 9 km/h 141 m -11.0 m/s Lisbon (PT) 403.020 MHz Alcácer do Sal (PT) 0.00 km UNKNOWN
T5240046 RS41-SGP 2022-05-22 13:06:29 44.2517 12.1895 225 ° 7 km/h 344 m -15.5 m/s San Pietro Capofiume (IT) 404.60 MHz Forlimpopoli (IT) 0.00 km FOUND
T3230439 RS41 2022-05-22 13:06:00 -30.0938 -49.8819 111 ° 26 km/h 2715 m -10.3 m/s Porto Alegre (BR) 403.001 MHz 0.00 km LOST
T4230687 RS41 2022-05-22 13:06:00 -23.4175 -49.9281 211 ° 24 km/h 1360 m -10.4 m/s Londrina (BR) 403.001 MHz Ourinhos (BR) 0.00 km UNKNOWN
T2930811 RS41 2022-05-22 13:05:31 49.543 15.2938 140 ° 19 km/h 917 m -10.1 m/s Praha (CZ) 401.10 MHz Humpolec (CZ) 0.00 km UNKNOWN
T1120781 RS41 2022-05-22 13:05:01 48.9888 17.9257 133 ° 35 km/h 675 m -17.1 m/s Prostějov (CZ) 402.10 MHz Slavičín (CZ) 0.00 km UNKNOWN
T4751241 RS41-SGP 2022-05-22 13:04:57 37.1649 -121.725 141 ° 24 km/h 1132 m -14.2 m/s Oakland [CA] (US) 404.000 MHz Morgan Hill [CA] (US) 0.00 km UNKNOWN
T3241560 RS41 2022-05-22 13:04:48 -27.7191 -47.4196 119 ° 17 km/h 91 m -13.2 m/s Florianopolis (BR) 405.300 MHz 0.00 km LOST
T4140502 RS41 2022-05-22 13:02:52 -33.2901 -70.3577 153 ° 33 km/h 3730 m -6.0 m/s Santo Domingo (CL) 403.000 MHz Lo Barnechea (CL) 0.00 km UNKNOWN
D20073183 DFM17 2022-05-22 13:02:50 2.60394 101.517 30 ° 6 km/h 420 m -11.3 m/s Kuala Lumpur (MY) 401.110 MHz 0.00 km LOST
T3330470 RS41-SGP 2022-05-22 13:02:00 -29.8479 -56.0983 230 ° 15 km/h 308 m -10.1 m/s Uruguaiana (BR) 403.721 MHz Artigas (UY) 0.00 km UNKNOWN
ME2122F64 M10 2022-05-22 12:58:58 41.4775 2.51623 67 ° 37 km/h 2741 m -9.0 m/s Barcelona (ES) 404.000 MHz Mataró (ES) 0.00 km LOST
T5110232 RS41 2022-05-22 12:58:30 45.8631 20.7899 142 ° 35 km/h 400 m -13.9 m/s Szeged (HU) 402.30 MHz Jimbolia (RO) 0.00 km UNKNOWN
D20070282 DFM 2022-05-22 12:58:20 5.14817 99.8442 96 ° 39 km/h 2607 m -15.8 m/s Bayan Lepas (MY) 400.170 MHz 0.00 km LOST
T1820307 RS41-SG 2022-05-22 12:58:12 56.4313 25.3301 163 ° 22 km/h 4013 m -13.5 m/s Skriveri (LV) 403.001 MHz Viesīte (LV) 0.00 km UNKNOWN
T1831271 RS41 2022-05-22 12:56:00 58.8087 6.35514 349 ° 7 km/h 2079 m -12.1 m/s Stavanger (NO) 403.000 MHz Forsand (NO) 0.00 km UNKNOWN
T4410341 RS41-SGP 2022-05-22 12:46:20 32.8018 -116.699 38 ° 6 km/h 818 m -16.6 m/s San Diego [CA] (US) 400.650 MHz Alpine [CA] (US) 0.00 km UNKNOWN
SC500CB5 SRSC50 2022-05-22 12:45:16 47.2307 9.80289 242 ° 19 km/h 24121 m -27.7 m/s Frauenfeld (CH) 403.901 MHz Ludesch (AT) 0.00 km UNKNOWN
T1630430 RS41-SGP 2022-05-22 12:38:40 36.2304 34.4434 23 ° 131 km/h 6951 m -6.1 m/s Nicosia (CY) 403.001 MHz Erdemli (TR) 0.00 km LOST
T1851187 RS41 2022-05-22 12:38:09 44.3432 8.02307 347 ° 15 km/h 1114 m -8.3 m/s Cuneo-Levaldigi (IT) 402.80 MHz Monesiglio (IT) 0.00 km UNKNOWN
U0730294 RS41-SG 2022-05-22 12:37:08 -32.6412 117.639 115 ° 194 km/h 9705 m -12.1 m/s Perth (AU) 401.500 MHz Narrogin (AU) 0.00 km UNKNOWN
R1640059 RS41 2022-05-22 12:20:28 56.5646 4.23895 96 ° 78 km/h 11864 m -28.6 m/s Ekofisk (NO) 403.000 MHz 0.00 km LOST
T3750025 RS41-SGP 2022-05-22 12:14:59 37.5574 23.8362 7 ° 30 km/h 76 m -14.5 m/s Athens (GR) 402.000 MHz Saronída (GR) 0.00 km LOST
D21015400 DFM09P 2022-05-22 12:06:00 79.9963 -86.7188 273 ° 9 km/h 11972 m 3.7 m/s Eureka [NU] (CA) 405.008 MHz 0.00 km LOST
T3550505 RS41 2022-05-22 12:00:50 -40.8236 176.663 82 ° 106 km/h 6282 m -18.7 m/s Paraparaumu (NZ) 400.501 MHz Pahiatua (NZ) 0.00 km LOST
U0420104 RS41 2022-05-22 11:37:10 32.5456 35.4611 45 ° 180 km/h 10429 m 3.4 m/s Beit Dagan (IL) 405.300 MHz Afula (IL) 0.00 km UNKNOWN
SC500CB4 SRSC50 2022-05-22 09:57:08 47.1678 10.0243 116 ° 72 km/h 4584 m -14.4 m/s Frauenfeld (CH) 403.999 MHz Bartholomäberg (AT) 0.00 km UNKNOWN
SC500C7D SRSC50 2022-05-22 09:40:34 46.621 9.12108 234 ° 24 km/h 23055 m -22.2 m/s Meiringen (CH) MHz Biasca (CH) 0.00 km UNKNOWN
U1630329 RS41 2022-05-22 08:03:22 48.0835 11.0101 327 ° 6 km/h 820 m -5.5 m/s Stuttgart (DE) 404.50 MHz Landsberg am Lech (DE) 0.00 km UNKNOWN
T0440544 RS41 2022-05-22 07:27:12 29.6097 -94.6441 60 ° 33 km/h 3345 m -9.2 m/s Houston [TX] (US) 404.501 MHz Bacliff [TX] (US) 0.00 km UNKNOWN
T3010044 RS41 2022-05-22 07:24:29 49.1567 9.07123 295 ° 13 km/h 288 m -4.0 m/s Idar-Oberstein (DE) 402.700 MHz Bad Rappenau (DE) 0.00 km UNKNOWN
T2930810 RS41 2022-05-22 07:24:14 49.6194 15.1764 139 ° 17 km/h 1231 m -13.7 m/s Praha (CZ) 404.20 MHz Humpolec (CZ) 0.00 km UNKNOWN
T0850877 RS41 2022-05-22 07:20:24 60.5506 23.5826 254 ° 20 km/h 294 m -12.4 m/s Jokioinen (FI) 403.000 MHz Somero (FI) 0.00 km UNKNOWN
SC500ECD SRSC50 2022-05-22 07:19:12 46.5524 9.11951 120 ° 72 km/h 13402 m -8.8 m/s Hinterrhein (CH) MHz Biasca (CH) 0.00 km UNKNOWN
ME0B22911 M10 2022-05-22 07:13:14 42.9462 22.1407 152 ° 39 km/h 3210 m -13.1 m/s Niš (RS) 402.400 MHz Vlasotince (RS) 0.00 km UNKNOWN
T4940004 RS41-SG 2022-05-22 07:05:28 42.3065 23.6355 116 ° 24 km/h 1359 m -15.5 m/s Sofia (BG) 405.300 MHz Samokov (BG) 0.00 km UNKNOWN
T3420006 RS41-SGP 2022-05-22 07:03:56 51.7071 15.2046 121 ° 17 km/h 441 m -9.9 m/s Lindenberg (DE) 405.10 MHz Żary (PL) 0.00 km UNKNOWN
ME0B2286D M10 2022-05-22 07:02:24 44.3934 20.8633 128 ° 19 km/h 472 m -13.3 m/s Belgrade (RS) 402.800 MHz Smederevska Palanka (RS) 0.00 km UNKNOWN
U0260344 RS41-SGP 2022-05-22 07:01:00 40.1378 22.9877 168 ° 43 km/h 718 m -7.2 m/s Thessaloniki (GR) 403.000 MHz Néa Kallikráteia (GR) 0.00 km LOST
SC500C99 SRSC50 2022-05-22 06:41:30 47.2105 9.83027 260 ° 33 km/h 29639 m -29.8 m/s Frauenfeld (CH) 403.902 MHz Ludesch (AT) 0.00 km UNKNOWN
SC500E71 SRSC50 2022-05-22 06:41:30 46.5299 9.42336 115 ° 81 km/h 8890 m -8.1 m/s Meiringen (CH) 404.102 MHz Domat/Ems (CH) 0.00 km UNKNOWN
T1630374 RS41 2022-05-22 06:16:20 36.0728 34.2785 22 ° 104 km/h 6414 m -10.4 m/s Nicosia (CY) 403.001 MHz Taşucu (TR) 0.00 km LOST
ME9700260 M20 2022-05-22 05:45:11 45.7531 15.1114 290 ° 31 km/h 1578 m -11.7 m/s Ljubljana (SI) 403.003 MHz Dolenjske Toplice (SI) 0.00 km FOUND
S2530360 RS41 2022-05-22 04:38:44 46.5999 12.6562 134 ° 20 km/h 2952 m -3.0 m/s Innsbruck (AT) 405.50 MHz Lienz (AT) 0.00 km UNKNOWN
R5130017 RS41 2022-05-22 04:32:39 46.4619 16.5763 232 ° 11 km/h 277 m -5.9 m/s Graz (AT) 404.70 MHz Dekanovec (HR) 0.00 km FOUND
S4350255 RS41 2022-05-22 03:55:33 47.7936 15.3109 155 ° 4 km/h 1051 m -6.8 m/s Linz (AT) 403.40 MHz Mariazell (AT) 0.00 km UNKNOWN
D19052574 DFM17 2022-05-22 03:48:20 38.3099 27.0999 178 ° 26 km/h 504 m -2.3 m/s Izmir (TR) 403.051 MHz Gaziemir (TR) 0.00 km FOUND
T3110969 RS41-SG 2022-05-22 03:24:24 45.2448 13.621 221 ° 6 km/h 127 m -3.0 m/s Udine-Rivolto (IT) 404.00 MHz Poreč (HR) 0.00 km UNKNOWN
T3821072 RS41 2022-05-22 03:19:35 49.7551 12.945 100 ° 11 km/h 637 m -1.8 m/s Meiningen (DE) 402.30 MHz Stříbro (CZ) 0.00 km FOUND
U0830528 RS41 2022-05-22 03:12:31 57.0367 13.7272 142 ° 19 km/h 1913 m -2.1 m/s Göteborg (SE) 405.30 MHz Värnamo (SE) 0.00 km LOST
U1050775 RS41 2022-05-22 02:45:00 50.7196 2.93603 293 ° 13 km/h 100 m -1.6 m/s Herstmonceux (GB) 405.800 MHz Comines-Warneton (BE) 0.00 km UNKNOWN
T3250087 RS41 2022-05-22 02:41:30 -25.0131 -46.6433 59 ° 13 km/h 2907 m -2.2 m/s Curitiba (BR) 403.000 MHz Itanhaém (BR) 0.00 km LOST
D20040496 DFM17 2022-05-22 02:40:30 37.5023 -79.6113 60 ° 17 km/h 690 m -1.8 m/s Blacksburg [VA] (US) 404.010 MHz Forest [VA] (US) 0.00 km UNKNOWN
ME0A225F1 M10 2022-05-22 02:33:00 48.6794 -3.32408 98 ° 11 km/h 1122 m -4.2 m/s Guipavas (FR) 403.999 MHz Lannion (FR) 0.00 km UNKNOWN
T3350350 RS41 2022-05-22 02:25:54 47.4537 13.3342 100 ° 48 km/h 2532 m -2.2 m/s München (DE) 402.30 MHz Eben im Pongau (AT) 0.00 km UNKNOWN
ME1722A29 M10 2022-05-22 02:24:30 45.2063 0.1923 201 ° 4 km/h 334 m -1.9 m/s Bordeaux (FR) 401.997 MHz Montpon-Ménestérol (FR) 0.00 km UNKNOWN
U1040190 RS41 2022-05-22 02:20:30 54.9564 -0.128549 79 ° 65 km/h 4051 m -4.2 m/s Albemarle (GB) 405.101 MHz Whitby (GB) 0.00 km LOST
D21015975 DFM09P 2022-05-22 02:11:59 79.8593 -86.6211 169 ° 28 km/h 41 m -9.8 m/s Eureka [NU] (CA) 405.010 MHz 0.00 km LOST
T1841301 RS41 2022-05-22 02:11:15 43.857 8.28078 166 ° 20 km/h 2817 m -2.7 m/s Cuneo-Levaldigi (IT) 402.80 MHz Alassio (IT) 0.00 km LOST
T3140419 RS41 2022-05-22 02:08:17 39.632 18.1264 215 ° 11 km/h 1941 m -2.0 m/s Galatina (IT) 403.50 MHz Ugento (IT) 0.00 km LOST
T3251487 RS41 2022-05-22 02:05:30 -29.6919 -51.8356 265 ° 11 km/h 315 m -3.3 m/s 403.001 MHz Rio Grande (BR) 0.00 km UNKNOWN
T1111010 RS41 2022-05-22 02:05:02 37.8835 -6.10352 17 ° 59 km/h 1757 m -5.6 m/s Huelva (ES) 402.500 MHz Burguillos (ES) 0.00 km UNKNOWN
T1450455 RS41 2022-05-22 02:04:32 51.8938 6.94989 284 ° 4 km/h 233 m -8.3 m/s De Bilt (NL) 403.90 MHz Borken (DE) 0.00 km NEED ATTENTION
IMS10C9DB MEISEI 2022-05-22 02:04:00 1.21591 103.609 84 ° 7 km/h 1123 m -9999.0 m/s Singapore (SG) 402.100 MHz 0.00 km LOST
T3350407 RS41 2022-05-22 02:03:03 53.3792 9.1999 107 ° 19 km/h 111 m -1.9 m/s Norderney (DE) 405.300 MHz Stade (DE) 0.00 km LOST
T1040223 RS41 2022-05-22 02:01:07 40.9574 -3.09517 338 ° 20 km/h 1288 m -5.4 m/s Madrid (ES) 403.000 MHz Marchamalo (ES) 0.00 km UNKNOWN
U0660130 RS41 2022-05-22 01:57:18 67.066 27.088 120 ° 24 km/h 11105 m -13.6 m/s Sodankyla (FI) 405.300 MHz Pelkosenniemi (FI) 0.00 km UNKNOWN
T1930490 RS41 2022-05-22 01:56:59 54.0528 11.6545 126 ° 30 km/h 421 m -2.1 m/s Schleswig (DE) 402.50 MHz Wismar (DE) 0.00 km FOUND
ME9A01527 M20 2022-05-22 01:55:33 50.2748 18.208 137 ° 41 km/h 1447 m -11.2 m/s Wrocław (PL) 403.000 MHz Kędzierzyn-Koźle (PL) 0.00 km UNKNOWN
T4250432 RS41 2022-05-22 01:54:00 50.3583 -4.1849 179 ° 4 km/h 73 m -7.9 m/s Camborne (GB) 403.30 MHz Torpoint (GB) 0.00 km LOST
T4310506 RS41 2022-05-22 01:53:32 52.9054 1.11923 100 ° 52 km/h 3206 m -2.6 m/s Watnall (GB) 405.501 MHz Sheringham (GB) 0.00 km UNKNOWN
T3050266 RS41 2022-05-22 01:51:32 38.731 9.01861 68 ° 6 km/h 197 m -4.1 m/s Decimomannu (IT) 403.50 MHz Capoterra (IT) 0.00 km LOST
T3030487 RS41 2022-05-22 01:49:50 45.0969 9.22539 226 ° 6 km/h 158 m -3.2 m/s Cameri (IT) 402.00 MHz Broni (IT) 0.00 km UNKNOWN
IMS7A19BD MEISEI 2022-05-22 01:48:53 40.971 29.2803 47 ° 9 km/h 346 m -9999.0 m/s Istanbul (TR) MHz Samandıra (TR) 0.00 km UNKNOWN
T1721146 RS41 2022-05-22 01:48:06 54.5898 -4.55386 63 ° 35 km/h 1974 m -5.3 m/s Castor Bay (IE) 403.90 MHz Stranraer (GB) 0.00 km LOST
T1111070 RS41-SGP 2022-05-22 01:47:57 39.5595 2.78344 343 ° 17 km/h 590 m -2.1 m/s Palma (ES) 402.00 MHz Algaida (ES) 0.00 km UNKNOWN
T5130551 RS41-NG 2022-05-22 01:45:00 39.1241 -76.814 38 ° 41 km/h 8004 m -4.6 m/s Washington [VA] (US) 403.001 MHz Maryland City [MD] (US) 0.00 km UNKNOWN
T5140123 RS41 2022-05-22 01:44:21 43.3222 -115.172 120 ° 17 km/h 2130 m -5.8 m/s Boise [ID] (US) 404.800 MHz Mountain Home [ID] (US) 0.00 km UNKNOWN
S4030976 RS41 2022-05-22 01:43:39 54.5255 23.8456 126 ° 31 km/h 165 m -9.5 m/s Kaunas (LT) 401.000 MHz Prienai (LT) 0.00 km FOUND
T3730669 RS41 2022-05-22 01:42:30 45.4755 16.3272 235 ° 9 km/h 267 m -12.6 m/s Zagreb (HR) 402.00 MHz Sisak (HR) 0.00 km FOUND
T0340731 RS41-NG 2022-05-22 01:41:37 43.5666 -77.3458 74 ° 57 km/h 1940 m -3.9 m/s Buffalo [NY] (US) 403.801 MHz Rochester [NY] (US) 0.00 km LOST
ME162332E M10 2022-05-22 01:40:00 48.6789 3.20391 172 ° 13 km/h 1051 m -12.3 m/s Trappes (FR) 401.000 MHz Provins (FR) 0.00 km UNKNOWN
U1450258 RS41 2022-05-22 01:39:06 51.1237 8.41344 208 ° 4 km/h 831 m -1.9 m/s Essen (DE) 405.30 MHz Bad Berleburg (DE) 0.00 km UNKNOWN
ME9202997 M20 2022-05-22 01:39:05 43.5966 4.7966 237 ° 7 km/h 91 m -4.5 m/s Nîmes (FR) 402.004 MHz Saint-Martin-de-Crau (FR) 0.00 km UNKNOWN
D21045933 DFM17 2022-05-22 01:38:42 40.9495 -87.8591 40 ° 6 km/h 1180 m -5.4 m/s Lincoln [IL] (US) 403.609 MHz Kankakee [IL] (US) 0.00 km UNKNOWN
T3440353 RS41 2022-05-22 01:37:56 51.5872 24.7684 131 ° 72 km/h 3435 m -9.0 m/s Brest (BY) 405.30 MHz Kamin-Kashyrskyi (UA) 0.00 km UNKNOWN
T3330430 RS41 2022-05-22 01:36:30 -29.9567 -55.5045 160 ° 7 km/h 742 m -2.2 m/s Uruguaiana (BR) 403.721 MHz 0.00 km UNKNOWN
S1940246 RS41 2022-05-22 01:35:53 44.0565 -3.43075 82 ° 54 km/h 265 m -4.4 m/s Santander (ES) 402.500 MHz Santoña (ES) 0.00 km LOST
D20046389 DFM09P 2022-05-22 01:35:00 44.5272 -62.964 354 ° 33 km/h 77 m -9.4 m/s Shearwater [NS] (CA) 402.510 MHz 0.00 km LOST
T3210045 RS41 2022-05-22 01:34:20 41.2206 12.3647 120 ° 11 km/h 187 m -13.2 m/s Pratica di Mare (IT) 402.70 MHz Anzio (IT) 0.00 km LOST
T0720146 RS41 2022-05-22 01:33:30 60.5039 23.6722 284 ° 33 km/h 335 m -13.9 m/s Jokioinen (FI) 403.000 MHz Somero (FI) 0.00 km LOST
T1550633 RS41 2022-05-22 01:32:03 47.7126 17.3558 153 ° 17 km/h 197 m -7.2 m/s Vienna (AT) 403.50 MHz Lébénymiklós (HU) 0.00 km UNKNOWN
U1630235 RS41 2022-05-22 01:31:44 48.3263 10.9179 270 ° 11 km/h 618 m -4.5 m/s Stuttgart (DE) 404.50 MHz Augsburg (DE) 0.00 km UNKNOWN
S3150846 RS41-SG 2022-05-22 01:30:30 46.4325 7.6171 110 ° 43 km/h 3425 m -11.0 m/s Payerne (CH) 403.50 MHz Frutigen (CH) 0.00 km UNKNOWN
T4430329 RS41 2022-05-22 01:30:00 44.2307 -122.136 126 ° 54 km/h 5180 m -13.8 m/s Salem [OR] (US) 401.40 MHz Sweet Home [OR] (US) 0.00 km UNKNOWN
LMS6CF789 LMS6 2022-05-22 01:29:34 39.7693 -93.8992 159 ° 26 km/h 1013 m -7.5 m/s Topeka [KS] (US) 400.257 MHz Excelsior Springs [MO] (US) 0.00 km UNKNOWN
D20073386 DFM 2022-05-22 01:28:52 2.55666 101.234 166 ° 13 km/h 708 m -14.1 m/s Kuala Lumpur (MY) 401.110 MHz 0.00 km LOST
T5110409 RS41-SGP 2022-05-22 01:26:03 46.8841 20.0106 159 ° 33 km/h 291 m -9.6 m/s Budapest (HU) 403.200 MHz Lakitelek (HU) 0.00 km FOUND
T2940639 RS41 2022-05-22 01:25:58 49.3761 8.47719 26 ° 2 km/h 297 m -13.4 m/s Idar-Oberstein (DE) 402.700 MHz Schwetzingen (DE) 0.00 km LOST
S3811022 RS41 2022-05-22 01:25:36 48.4669 21.261 165 ° 30 km/h 921 m -17.0 m/s Poprad (SK) 400.600 MHz Veľká Ida (SK) 0.00 km UNKNOWN
MRZE820E1 MP3H 2022-05-22 01:25:00 55.76 44.8376 133 ° 26 km/h 1828 m -12.4 m/s Niznij Novgorod (RU) 403.000 MHz Knyaginino (RU) 0.00 km UNKNOWN
T1120365 RS41 2022-05-22 01:24:49 48.8386 18.1424 161 ° 30 km/h 861 m -10.5 m/s Prostějov (CZ) 402.10 MHz Trenčianske Teplice (SK) 0.00 km FOUND
T3241555 RS41 2022-05-22 01:23:59 -27.4331 -47.2297 232 ° 7 km/h 33 m -4.5 m/s Florianopolis (BR) 405.300 MHz 0.00 km LOST
SC500858 SRSC50 2022-05-22 01:23:12 46.4775 9.36988 114 ° 70 km/h 9522 m -4.2 m/s Hinterrhein (CH) 404.101 MHz Biasca (CH) 0.00 km UNKNOWN
D21011348 DFM17 2022-05-22 01:23:00 41.4512 -98.7695 162 ° 28 km/h 785 m -8.0 m/s North Platte [NE] (US) 403.010 MHz Grand Island [NE] (US) 0.00 km UNKNOWN
LMS6CF8B6 LMS6 2022-05-22 01:23:00 42.6096 -88.8501 63 ° 141 km/h 5282 m -7.4 m/s Davenport [IA] (US) 401.009 MHz Janesville [WI] (US) 0.00 km UNKNOWN
T2250480 RS41 2022-05-22 01:22:55 -37.4985 145.24 216 ° 6 km/h 663 m -6.8 m/s Melbourne (AU) 401.500 MHz Whittlesea (AU) 0.00 km UNKNOWN
D21040085 DFM17 2022-05-22 01:22:50 37.7369 -92.6461 61 ° 83 km/h 8968 m -12.2 m/s Springfield [MO] (US) 403.011 MHz Lebanon [MO] (US) 0.00 km UNKNOWN
T1110833 RS41 2022-05-22 01:22:34 28.108 -15.9971 112 ° 87 km/h 12561 m -5.5 m/s Guimar (ES) 402.000 MHz San Nicolás (ES) 0.00 km LOST
ME9A01951 M20 2022-05-22 01:22:30 54.1593 18.1929 134 ° 61 km/h 1209 m -9.7 m/s Łeba (PL) 403.604 MHz Kościerzyna (PL) 0.00 km UNKNOWN
ME01231E4 M10 2022-05-22 01:22:06 41.5838 8.76545 276 ° 7 km/h 27593 m -23.0 m/s Ajaccio (FR) MHz Ajaccio (FR) 0.00 km LOST
T4340376 RS41-SG 2022-05-22 01:19:06 52.1645 -9.25792 54 ° 74 km/h 1835 m -15.8 m/s Cahersiveen (IE) 405.30 MHz Killarney (IE) 0.00 km UNKNOWN
SC500CAE SRSC50 2022-05-22 01:18:44 47.1879 9.95256 125 ° 81 km/h 9841 m -4.3 m/s Frauenfeld (CH) 403.902 MHz Bludenz (AT) 0.00 km UNKNOWN
U0720466 RS41 2022-05-22 01:18:24 -32.4977 117.406 129 ° 83 km/h 7218 m -9.2 m/s Perth (AU) 401.500 MHz Narrogin (AU) 0.00 km UNKNOWN
T4340100 RS41 2022-05-22 01:17:48 61.2894 -150.267 17 ° 11 km/h 7409 m -16.5 m/s Anchorage [AK] (US) 405.301 MHz Knik-Fairview [AK] (US) 0.00 km UNKNOWN
T4510632 RS41 2022-05-22 01:16:56 -34.7513 139.125 231 ° 37 km/h 800 m -8.2 m/s Adelaide (AU) 401.501 MHz Williamstown (AU) 0.00 km FOUND
T3420001 RS41 2022-05-22 01:16:31 51.5744 15.2932 132 ° 41 km/h 515 m -8.0 m/s Lindenberg (DE) 405.10 MHz Żagań (PL) 0.00 km UNKNOWN
D20040729 DFM17 2022-05-22 01:16:08 43.1 -107.595 93 ° 39 km/h 4180 m -11.0 m/s Riverton [WY] (US) 403.010 MHz Riverton [WY] (US) 0.00 km UNKNOWN
T4721056 RS41 2022-05-22 01:14:47 59.1004 24.7083 231 ° 33 km/h 182 m -14.9 m/s Tallinn (EE) 404.001 MHz Kohila (EE) 0.00 km UNKNOWN
S0740114 RS41-SGP 2022-05-22 01:14:00 43.9357 -8.48131 319 ° 35 km/h 3324 m -6.3 m/s A Coruña (ES) 404.000 MHz Valdoviño (ES) 0.00 km LOST
D21009223 DFM17 2022-05-22 01:13:35 45.6973 -92.1827 90 ° 41 km/h 2631 m -8.5 m/s Chanhassen [MN] (US) 403.611 MHz North Branch [MN] (US) 0.00 km UNKNOWN
T4210546 RS41 2022-05-22 01:13:18 44.2999 26.8694 213 ° 37 km/h 232 m -11.6 m/s Bucarest (RO) 403.921 MHz Lehliu-Gară (RO) 0.00 km LOST
ME0B22919 M10 2022-05-22 01:13:02 43.0233 22.0981 149 ° 39 km/h 6086 m -15.6 m/s Niš (RS) 402.402 MHz Vlasotince (RS) 0.00 km UNKNOWN
T4420182 RS41 2022-05-22 01:12:00 -27.8601 154.009 250 ° 24 km/h 3090 m -7.5 m/s Brisbane (AU) 401.50 MHz Tweed Heads (AU) 0.00 km LOST
T2940007 RS41 2022-05-22 01:11:44 49.5747 15.1821 148 ° 26 km/h 903 m -16.2 m/s Praha (CZ) 401.10 MHz Humpolec (CZ) 0.00 km UNKNOWN
T3241166 RS41-SGP 2022-05-22 01:11:30 -25.5466 -53.2013 61 ° 6 km/h 3507 m -15.4 m/s Foz Do Iguacu (BR) 403.013 MHz Cascavel (BR) 0.00 km UNKNOWN
T1930793 RS41 2022-05-22 01:11:00 58.7707 6.29143 93 ° 22 km/h 3013 m -12.4 m/s Stavanger (NO) 403.000 MHz Bjerkreim (NO) 0.00 km UNKNOWN
T5110229 RS41 2022-05-22 01:09:30 45.8189 20.7633 175 ° 48 km/h 376 m -12.1 m/s Szeged (HU) 402.30 MHz Jimbolia (RO) 0.00 km UNKNOWN
ME1622E99 M10 2022-05-22 01:09:18 38.0233 -0.97941 78 ° 15 km/h 253 m -10.5 m/s Murcia (ES) 403.399 MHz Beniel (ES) 0.00 km UNKNOWN
ME0B22880 M10 2022-05-22 01:08:58 44.4232 20.7849 185 ° 43 km/h 656 m -11.7 m/s Belgrade (RS) 402.798 MHz Mladenovac (RS) 0.00 km UNKNOWN
T3230455 RS41 2022-05-22 01:08:30 -29.8905 -49.9558 76 ° 24 km/h 1700 m -10.8 m/s Porto Alegre (BR) 403.001 MHz 0.00 km LOST
T0440122 RS41-SGP 2022-05-22 01:08:11 29.7325 -94.7649 1 ° 33 km/h 1907 m -16.6 m/s Houston [TX] (US) 404.501 MHz Baytown [TX] (US) 0.00 km LOST
T3410518 RS41 2022-05-22 01:07:41 53.5424 14.5764 143 ° 43 km/h 711 m -5.5 m/s Greifswald (DE) 402.30 MHz Police (PL) 0.00 km FOUND
D22001445 DFM 2022-05-22 01:06:52 3.65214 102.835 121 ° 24 km/h 3033 m -15.8 m/s Kuantan (MY) 402.010 MHz 0.00 km UNKNOWN
T4950576 RS41 2022-05-22 01:05:54 51.8752 21.7557 122 ° 61 km/h 739 m -13.9 m/s Legionowo (PL) 404.50 MHz Garwolin (PL) 0.00 km UNKNOWN
S5021166 RS41 2022-05-22 01:04:00 -35.0877 147.957 267 ° 28 km/h 1319 m -12.9 m/s Wagga Wagga (AU) 401.501 MHz Tumut (AU) 0.00 km UNKNOWN
T3750241 RS41-SGP 2022-05-22 01:03:00 40.147 22.7875 169 ° 17 km/h 649 m -13.9 m/s Thessaloniki (GR) 403.000 MHz Leptokaryá (GR) 0.00 km LOST
T5240670 RS41-SGP 2022-05-22 01:02:53 44.2959 11.9506 354 ° 4 km/h 60 m -12.9 m/s San Pietro Capofiume (IT) 404.60 MHz Faenza (IT) 0.00 km FOUND
T0941900 RS41 2022-05-22 01:02:08 -29.6814 150.657 114 ° 83 km/h 7447 m -13.6 m/s Moree (AU) 401.500 MHz Inverell (AU) 0.00 km UNKNOWN
T3810009 RS41 2022-05-22 01:01:26 43.7426 15.5508 142 ° 19 km/h 97 m -16.1 m/s Zadar (HR) 403.00 MHz Murter (HR) 0.00 km LOST
D21007588 DFM17 2022-05-22 01:00:56 40.752 -110.792 223 ° 9 km/h 22359 m -16.1 m/s Salt Lake City [UT] (US) 405.010 MHz Heber [UT] (US) 0.00 km UNKNOWN
T0420667 RS41-SGP 2022-05-22 01:00:42 39.0951 -105.52 170 ° 15 km/h 26633 m -11.7 m/s Crested Butte [CO] (US) 403.000 MHz Woodland Park [CO] (US) 0.00 km UNKNOWN
T4420245 RS41-SGP 2022-05-22 00:58:01 33.021 -116.513 9 ° 11 km/h 1586 m -15.4 m/s San Diego [CA] (US) 400.900 MHz San Diego Country Estates [CA] (US) 0.00 km UNKNOWN
T4820325 RS41 2022-05-22 00:57:30 37.5327 -121.559 156 ° 17 km/h 1429 m -11.9 m/s Oakland [CA] (US) 404.000 MHz Tracy [CA] (US) 0.00 km UNKNOWN
S1940259 RS41 2022-05-22 00:56:58 43.7904 -3.52352 71 ° 57 km/h 302 m -8.3 m/s Santander (ES) 401.500 MHz Santoña (ES) 0.00 km LOST
T3341335 RS41-SG 2022-05-22 00:53:38 -32.9479 152.525 61 ° 48 km/h 19449 m -23.1 m/s Williamtown (AU) 402.500 MHz Nelson Bay (AU) 0.00 km LOST
ME2122F5F M10 2022-05-22 00:49:42 41.4203 2.42067 61 ° 20 km/h 3378 m -9.1 m/s Barcelona (ES) 403.999 MHz Premiá de Mar (ES) 0.00 km LOST
T1910700 RS41 2022-05-22 00:45:14 56.4531 4.204 90 ° 65 km/h 12913 m -22.3 m/s Ekofisk (NO) 403.000 MHz 0.00 km LOST
S2440429 RS41-SGP 2022-05-22 00:29:54 24.71 122.178 90 ° 43 km/h 4040 m -7.8 m/s New Taipei (TW) 400.30 MHz Yilan (TW) 0.00 km LOST
T1311029 RS41 2022-05-22 00:27:59 52.4856 11.3502 120 ° 39 km/h 811 m -14.1 m/s Bergen (DE) 405.70 MHz Haldensleben (DE) 0.00 km UNKNOWN
T3140624 RS41 2022-05-22 00:26:35 37.5518 12.4621 118 ° 20 km/h 60 m -8.4 m/s Trapani-Birgi (IT) 404.500 MHz Mazara del Vallo (IT) 0.00 km LOST
D20064690 DFM 2022-05-22 00:23:12 5.25677 100.399 247 ° 9 km/h 135 m -6.2 m/s Bayan Lepas (MY) 400.170 MHz 0.00 km LOST
IMET86552 iMET 2022-05-22 00:14:05 50.5427 7.16383 94 ° 31 km/h 1972 m -4.6 m/s Beauvechain (BE) 403.000 MHz Bad Neuenahr-Ahrweiler (DE) 0.00 km UNKNOWN
T3950296 RS41-SG 2022-05-21 23:52:34 -40.7197 176.668 72 ° 104 km/h 5414 m -18.1 m/s Paraparaumu (NZ) 400.501 MHz Pahiatua (NZ) 0.00 km LOST
ME0B22866 M10 2022-05-21 19:56:29 44.4667 20.6701 189 ° 33 km/h 662 m -13.6 m/s Belgrade (RS) 402.001 MHz Mladenovac (RS) 0.00 km UNKNOWN
T0840742 RS41 2022-05-21 19:28:29 60.5331 23.7062 281 ° 31 km/h 358 m -10.9 m/s Jokioinen (FI) 403.000 MHz Somero (FI) 0.00 km UNKNOWN
T0530123 RS41-SGP 2022-05-21 19:11:58 29.4807 -95.3825 1 ° 31 km/h 727 m -11.7 m/s 403.501 MHz Manvel [TX] (US) 0.00 km UNKNOWN
T2940629 RS41 2022-05-21 19:03:40 49.3306 8.75955 237 ° 9 km/h 294 m -3.4 m/s Idar-Oberstein (DE) 402.70 MHz Leimen (DE) 0.00 km FOUND
ME0B22913 M10 2022-05-21 19:02:10 43.0916 21.9344 190 ° 22 km/h 7269 m -17.8 m/s Niš (RS) 403.402 MHz Leskovac (RS) 0.00 km UNKNOWN
T3341296 RS41 2022-05-21 19:00:37 51.4822 15.7292 104 ° 54 km/h 745 m -8.7 m/s Lindenberg (DE) 405.10 MHz Przemków (PL) 0.00 km UNKNOWN
T0510493 RS41-SGP 2022-05-21 18:58:00 37.0052 -96.6064 60 ° 93 km/h 7947 m -14.8 m/s Lamont [OK] (US) 400.501 MHz Arkansas City [KS] (US) 0.00 km UNKNOWN
ME0B2286C M10 2022-05-21 18:54:58 44.3929 20.9843 177 ° 37 km/h 734 m -6.7 m/s Belgrade (RS) 402.800 MHz Smederevska Palanka (RS) 0.00 km UNKNOWN
SC500885 SRSC50 2022-05-21 18:52:28 47.2454 9.73522 224 ° 24 km/h 24560 m -32.5 m/s Frauenfeld (CH) MHz Schlins (AT) 0.00 km UNKNOWN
T4520464 RS41 2022-05-21 18:24:41 -27.925 153.909 277 ° 46 km/h 1600 m -7.9 m/s Brisbane (AU) 401.50 MHz Tweed Heads (AU) 0.00 km LOST
SC500BA2 SRSC50 2022-05-21 18:21:04 46.6416 9.08969 228 ° 17 km/h 22748 m -67.1 m/s Meiringen (CH) MHz Biasca (CH) 0.00 km UNKNOWN
T0530126 RS41 2022-05-21 16:50:39 29.4919 -95.4281 349 ° 39 km/h 742 m -16.5 m/s Houston [TX] (US) 405.501 MHz Manvel [TX] (US) 0.00 km UNKNOWN
S1940378 RS41 2022-05-21 14:34:42 44.0725 -2.80336 26 ° 24 km/h 735 m -2.6 m/s Santander (ES) 401.500 MHz Bermeo (ES) 0.00 km LOST
T1930120 RS41 2022-05-21 14:30:32 49.8368 13.0396 132 ° 24 km/h 645 m -1.9 m/s Meiningen (DE) 402.30 MHz Stříbro (CZ) 0.00 km FOUND
T1010582 RS41-SGP 2022-05-21 14:29:38 39.3628 2.65174 347 ° 7 km/h 78 m -2.7 m/s Palma (ES) 402.00 MHz Palma (ES) 0.00 km LOST
LMS6CF92B LMS6 2022-05-21 14:21:35 40.2494 -93.9439 272 ° 11 km/h 1469 m -2.6 m/s Topeka [KS] (US) 400.260 MHz Maryville [MO] (US) 0.00 km UNKNOWN
T3240350 RS41-SGP 2022-05-21 14:17:44 -27.3387 -47.0794 128 ° 4 km/h 367 m -3.0 m/s Florianopolis (BR) 405.300 MHz 0.00 km LOST